<?xml version='1.0' encoding='UTF-8'?><gpx version="1.1" creator="JPX - https://github.com/jenetics/jpx" xmlns="http://www.topografix.com/GPX/1/1"><trk><trkseg><trkpt lat="43.0441860435273" lon="10.888886518612942"><ele>363.0</ele><time>2026-04-25T06:40:16.001Z</time></trkpt><trkpt lat="43.044167501534815" lon="10.888973049950696"><ele>363.0</ele><time>2026-04-25T06:40:17.001Z</time></trkpt><trkpt lat="43.04410239626626" lon="10.88905490427327"><ele>363.0</ele><time>2026-04-25T06:40:19.002Z</time></trkpt><trkpt lat="43.04403643893045" lon="10.88903299263269"><ele>363.0</ele><time>2026-04-25T06:40:21.002Z</time></trkpt><trkpt lat="43.04395396140601" lon="10.889043047360698"><ele>363.0</ele><time>2026-04-25T06:40:23.002Z</time></trkpt><trkpt lat="43.043862200271306" lon="10.889098985755638"><ele>363.0</ele><time>2026-04-25T06:40:25.002Z</time></trkpt><trkpt lat="43.043802039870386" lon="10.889004559617705"><ele>361.6666666666667</ele><time>2026-04-25T06:40:27.002Z</time></trkpt><trkpt lat="43.043806612130396" lon="10.888915502357476"><ele>360.3333333333333</ele><time>2026-04-25T06:40:28.002Z</time></trkpt><trkpt lat="43.043826566443286" lon="10.888803774294313"><ele>359.0</ele><time>2026-04-25T06:40:29.002Z</time></trkpt><trkpt lat="43.043817903552124" lon="10.888652015142874"><ele>357.66666666666663</ele><time>2026-04-25T06:40:30.002Z</time></trkpt><trkpt lat="43.04384197832823" lon="10.888557234650913"><ele>356.3333333333333</ele><time>2026-04-25T06:40:31.002Z</time></trkpt><trkpt lat="43.04391760034372" lon="10.888476617579572"><ele>355.0</ele><time>2026-04-25T06:40:32.002Z</time></trkpt><trkpt lat="43.04399717926162" lon="10.888380061960882"><ele>354.4</ele><time>2026-04-25T06:40:33.002Z</time></trkpt><trkpt lat="43.044088937238975" lon="10.888267978872644"><ele>353.8</ele><time>2026-04-25T06:40:34.002Z</time></trkpt><trkpt lat="43.04417814072749" lon="10.888155106577074"><ele>353.20000000000005</ele><time>2026-04-25T06:40:35.002Z</time></trkpt><trkpt lat="43.04425669649557" lon="10.888088244556378"><ele>352.6</ele><time>2026-04-25T06:40:36.002Z</time></trkpt><trkpt lat="43.044330823345064" lon="10.888052202044449"><ele>352.0</ele><time>2026-04-25T06:40:37.002Z</time></trkpt><trkpt lat="43.04444483534285" lon="10.88803540244968"><ele>352.0</ele><time>2026-04-25T06:40:38.002Z</time></trkpt><trkpt lat="43.044573553465014" lon="10.887992450920398"><ele>352.0</ele><time>2026-04-25T06:40:39.002Z</time></trkpt><trkpt lat="43.04468698765316" lon="10.8878606794392"><ele>352.0</ele><time>2026-04-25T06:40:40.002Z</time></trkpt><trkpt lat="43.04479922252325" lon="10.887704844789264"><ele>352.0</ele><time>2026-04-25T06:40:41.002Z</time></trkpt><trkpt lat="43.044890062127806" lon="10.887559465230225"><ele>350.6</ele><time>2026-04-25T06:40:42.002Z</time></trkpt><trkpt lat="43.044962066508226" lon="10.887458249772445"><ele>349.20000000000005</ele><time>2026-04-25T06:40:43.002Z</time></trkpt><trkpt lat="43.04501310732827" lon="10.887381515558383"><ele>347.8</ele><time>2026-04-25T06:40:44.002Z</time></trkpt><trkpt lat="43.04511173534244" lon="10.887303817948622"><ele>346.4</ele><time>2026-04-25T06:40:46.002Z</time></trkpt><trkpt lat="43.04502624029389" lon="10.887192977353703"><ele>345.0</ele><time>2026-04-25T06:40:47.002Z</time></trkpt><trkpt lat="43.04500303264951" lon="10.887058136065592"><ele>345.0</ele><time>2026-04-25T06:40:48.002Z</time></trkpt><trkpt lat="43.04498556759768" lon="10.886956660449012"><ele>345.0</ele><time>2026-04-25T06:40:52.002Z</time></trkpt><trkpt lat="43.045172208397524" lon="10.886918904144048"><ele>345.0</ele><time>2026-04-25T06:40:54.002Z</time></trkpt><trkpt lat="43.04529332956117" lon="10.88687248678403"><ele>345.0</ele><time>2026-04-25T06:40:55.002Z</time></trkpt><trkpt lat="43.04539901056023" lon="10.886786022766817"><ele>341.4</ele><time>2026-04-25T06:40:56.002Z</time></trkpt><trkpt lat="43.04548999916453" lon="10.886713983128589"><ele>337.8</ele><time>2026-04-25T06:40:57.002Z</time></trkpt><trkpt lat="43.045538301273574" lon="10.886612752504842"><ele>334.20000000000005</ele><time>2026-04-25T06:40:58.002Z</time></trkpt><trkpt lat="43.045556750294296" lon="10.886503762655419"><ele>330.6</ele><time>2026-04-25T06:40:59.002Z</time></trkpt><trkpt lat="43.045529920272514" lon="10.886396650577613"><ele>327.0</ele><time>2026-04-25T06:41:00.002Z</time></trkpt><trkpt lat="43.04546099725097" lon="10.88630568109902"><ele>327.0</ele><time>2026-04-25T06:41:01.002Z</time></trkpt><trkpt lat="43.045357740727844" lon="10.886257430906019"><ele>327.0</ele><time>2026-04-25T06:41:02.002Z</time></trkpt><trkpt lat="43.04525168010324" lon="10.886253387223748"><ele>327.0</ele><time>2026-04-25T06:41:03.002Z</time></trkpt><trkpt lat="43.04513573546102" lon="10.886284117269476"><ele>327.0</ele><time>2026-04-25T06:41:04.002Z</time></trkpt><trkpt lat="43.04499325647466" lon="10.886318996095264"><ele>326.6</ele><time>2026-04-25T06:41:05.002Z</time></trkpt><trkpt lat="43.04486250731583" lon="10.886362327350692"><ele>326.20000000000005</ele><time>2026-04-25T06:41:06.002Z</time></trkpt><trkpt lat="43.04476270950066" lon="10.886376707268477"><ele>325.8</ele><time>2026-04-25T06:41:07.002Z</time></trkpt><trkpt lat="43.04469409543771" lon="10.886373904261308"><ele>325.4</ele><time>2026-04-25T06:41:08.002Z</time></trkpt><trkpt lat="43.04462745940523" lon="10.886345596838392"><ele>325.0</ele><time>2026-04-25T06:41:10.002Z</time></trkpt><trkpt lat="43.04462596694874" lon="10.886191091752124"><ele>325.0</ele><time>2026-04-25T06:41:11.002Z</time></trkpt><trkpt lat="43.044652564462545" lon="10.88602181067936"><ele>325.0</ele><time>2026-04-25T06:41:13.002Z</time></trkpt><trkpt lat="43.04484564162478" lon="10.886006351833561"><ele>325.0</ele><time>2026-04-25T06:41:15.002Z</time></trkpt><trkpt lat="43.044937716182226" lon="10.88603208388361"><ele>325.0</ele><time>2026-04-25T06:41:16.002Z</time></trkpt><trkpt lat="43.04503875897943" lon="10.886073918315438"><ele>325.3333333333333</ele><time>2026-04-25T06:41:17.002Z</time></trkpt><trkpt lat="43.04514718113207" lon="10.886108596825322"><ele>325.66666666666663</ele><time>2026-04-25T06:41:18.002Z</time></trkpt><trkpt lat="43.045234532027926" lon="10.886127559365002"><ele>326.0</ele><time>2026-04-25T06:41:19.002Z</time></trkpt><trkpt lat="43.04530140544106" lon="10.886139528345751"><ele>326.3333333333333</ele><time>2026-04-25T06:41:20.002Z</time></trkpt><trkpt lat="43.04537499687976" lon="10.886141897433808"><ele>326.6666666666667</ele><time>2026-04-25T06:41:21.002Z</time></trkpt><trkpt lat="43.0454689857242" lon="10.886118898215555"><ele>327.0</ele><time>2026-04-25T06:41:22.002Z</time></trkpt><trkpt lat="43.04558877290388" lon="10.886066349387987"><ele>327.0</ele><time>2026-04-25T06:41:23.002Z</time></trkpt><trkpt lat="43.045706457635305" lon="10.88603694439629"><ele>327.0</ele><time>2026-04-25T06:41:24.002Z</time></trkpt><trkpt lat="43.045802780946026" lon="10.886028545423368"><ele>327.0</ele><time>2026-04-25T06:41:25.002Z</time></trkpt><trkpt lat="43.04589419258847" lon="10.885968119455022"><ele>327.0</ele><time>2026-04-25T06:41:27.002Z</time></trkpt><trkpt lat="43.04591035550268" lon="10.885877016946875"><ele>327.0</ele><time>2026-04-25T06:41:28.002Z</time></trkpt><trkpt lat="43.04591130409331" lon="10.88574177967026"><ele>324.8</ele><time>2026-04-25T06:41:29.002Z</time></trkpt><trkpt lat="43.04591399672902" lon="10.88558217367877"><ele>322.6</ele><time>2026-04-25T06:41:30.002Z</time></trkpt><trkpt lat="43.04593059037722" lon="10.885459156225858"><ele>320.40000000000003</ele><time>2026-04-25T06:41:31.002Z</time></trkpt><trkpt lat="43.045946036308784" lon="10.88537084765267"><ele>318.20000000000005</ele><time>2026-04-25T06:41:32.002Z</time></trkpt><trkpt lat="43.045976670727065" lon="10.885273069040329"><ele>316.0</ele><time>2026-04-25T06:41:34.002Z</time></trkpt><trkpt lat="43.04606913102933" lon="10.885314923484302"><ele>316.0</ele><time>2026-04-25T06:41:35.002Z</time></trkpt><trkpt lat="43.0461491626787" lon="10.885305567302554"><ele>316.0</ele><time>2026-04-25T06:41:36.002Z</time></trkpt><trkpt lat="43.04625494688445" lon="10.885325245412663"><ele>316.0</ele><time>2026-04-25T06:41:37.002Z</time></trkpt><trkpt lat="43.04636634772641" lon="10.885332237858014"><ele>316.0</ele><time>2026-04-25T06:41:38.002Z</time></trkpt><trkpt lat="43.046486739025625" lon="10.885324604608098"><ele>316.0</ele><time>2026-04-25T06:41:39.002Z</time></trkpt><trkpt lat="43.04661285774351" lon="10.885318262537577"><ele>317.0</ele><time>2026-04-25T06:41:40.002Z</time></trkpt><trkpt lat="43.046719750165316" lon="10.885304243606729"><ele>318.0</ele><time>2026-04-25T06:41:41.002Z</time></trkpt><trkpt lat="43.046803535880485" lon="10.88526687195579"><ele>319.0</ele><time>2026-04-25T06:41:42.002Z</time></trkpt><trkpt lat="43.04688295155351" lon="10.885242737954714"><ele>320.0</ele><time>2026-04-25T06:41:43.002Z</time></trkpt><trkpt lat="43.046953549826085" lon="10.885225265523827"><ele>321.0</ele><time>2026-04-25T06:41:44.002Z</time></trkpt><trkpt lat="43.04705258123742" lon="10.885169396152008"><ele>321.0</ele><time>2026-04-25T06:41:46.002Z</time></trkpt><trkpt lat="43.04713269196072" lon="10.885109311760951"><ele>321.0</ele><time>2026-04-25T06:41:48.002Z</time></trkpt><trkpt lat="43.046985025075536" lon="10.884948062352787"><ele>321.0</ele><time>2026-04-25T06:41:51.002Z</time></trkpt><trkpt lat="43.046891096596724" lon="10.884927942390032"><ele>321.0</ele><time>2026-04-25T06:41:52.002Z</time></trkpt><trkpt lat="43.046787717699" lon="10.884898921560385"><ele>317.8</ele><time>2026-04-25T06:41:53.002Z</time></trkpt><trkpt lat="43.04671333338487" lon="10.884854691707334"><ele>314.6</ele><time>2026-04-25T06:41:54.002Z</time></trkpt><trkpt lat="43.046639124478226" lon="10.884776343809042"><ele>311.4</ele><time>2026-04-25T06:41:55.002Z</time></trkpt><trkpt lat="43.04662561940923" lon="10.884619500094088"><ele>308.2</ele><time>2026-04-25T06:41:56.002Z</time></trkpt><trkpt lat="43.046594082232915" lon="10.884477930007856"><ele>305.0</ele><time>2026-04-25T06:41:57.002Z</time></trkpt><trkpt lat="43.046571506633526" lon="10.88431670822695"><ele>300.0</ele><time>2026-04-25T06:41:58.002Z</time></trkpt><trkpt lat="43.046504203159316" lon="10.884203071872792"><ele>295.0</ele><time>2026-04-25T06:41:59.002Z</time></trkpt><trkpt lat="43.046410770990946" lon="10.884116911030532"><ele>290.0</ele><time>2026-04-25T06:42:00.002Z</time></trkpt><trkpt lat="43.04631613762249" lon="10.884027933116613"><ele>285.0</ele><time>2026-04-25T06:42:01.002Z</time></trkpt><trkpt lat="43.04621401640433" lon="10.883936263271938"><ele>285.0</ele><time>2026-04-25T06:42:02.002Z</time></trkpt><trkpt lat="43.04609171488735" lon="10.883869626890167"><ele>285.0</ele><time>2026-04-25T06:42:03.002Z</time></trkpt><trkpt lat="43.04596812510937" lon="10.883805061685987"><ele>285.0</ele><time>2026-04-25T06:42:04.002Z</time></trkpt><trkpt lat="43.04584546413537" lon="10.883742442284358"><ele>285.0</ele><time>2026-04-25T06:42:05.002Z</time></trkpt><trkpt lat="43.045727957018514" lon="10.883682662376044"><ele>284.25</ele><time>2026-04-25T06:42:06.002Z</time></trkpt><trkpt lat="43.045610405226256" lon="10.883624582426219"><ele>283.5</ele><time>2026-04-25T06:42:07.002Z</time></trkpt><trkpt lat="43.04548292546273" lon="10.88357881484162"><ele>282.75</ele><time>2026-04-25T06:42:08.002Z</time></trkpt><trkpt lat="43.045362585868254" lon="10.883528711263505"><ele>282.0</ele><time>2026-04-25T06:42:09.002Z</time></trkpt><trkpt lat="43.0452322418999" lon="10.883460687430885"><ele>275.5</ele><time>2026-04-25T06:42:10.002Z</time></trkpt><trkpt lat="43.045092173873" lon="10.883427380777528"><ele>269.0</ele><time>2026-04-25T06:42:11.002Z</time></trkpt><trkpt lat="43.04495682697849" lon="10.883392698113967"><ele>262.5</ele><time>2026-04-25T06:42:12.002Z</time></trkpt><trkpt lat="43.044835015177036" lon="10.883363473443687"><ele>256.0</ele><time>2026-04-25T06:42:13.002Z</time></trkpt><trkpt lat="43.04472290684382" lon="10.88332927715797"><ele>254.83333333333331</ele><time>2026-04-25T06:42:14.002Z</time></trkpt><trkpt lat="43.04461824152272" lon="10.883303908429225"><ele>253.66666666666666</ele><time>2026-04-25T06:42:15.002Z</time></trkpt><trkpt lat="43.04453014972138" lon="10.883264880128586"><ele>252.5</ele><time>2026-04-25T06:42:16.002Z</time></trkpt><trkpt lat="43.044451952807776" lon="10.883262795927573"><ele>251.33333333333331</ele><time>2026-04-25T06:42:17.002Z</time></trkpt><trkpt lat="43.04438745841453" lon="10.883268019910783"><ele>250.16666666666666</ele><time>2026-04-25T06:42:18.002Z</time></trkpt><trkpt lat="43.04431576631302" lon="10.883226161396825"><ele>249.0</ele><time>2026-04-25T06:42:20.002Z</time></trkpt><trkpt lat="43.044361026281955" lon="10.883105947999148"><ele>249.0</ele><time>2026-04-25T06:42:22.002Z</time></trkpt><trkpt lat="43.04440054604957" lon="10.883009600392297"><ele>248.99999999999997</ele><time>2026-04-25T06:42:23.002Z</time></trkpt><trkpt lat="43.0444549337252" lon="10.88291248000348"><ele>248.99999999999997</ele><time>2026-04-25T06:42:24.002Z</time></trkpt><trkpt lat="43.0444966819" lon="10.88278404117823"><ele>249.0</ele><time>2026-04-25T06:42:25.002Z</time></trkpt><trkpt lat="43.044514659507854" lon="10.882618417681138"><ele>249.0</ele><time>2026-04-25T06:42:26.002Z</time></trkpt><trkpt lat="43.04451712883196" lon="10.882426716099966"><ele>245.25</ele><time>2026-04-25T06:42:27.002Z</time></trkpt><trkpt lat="43.04451131512554" lon="10.882224683823665"><ele>241.5</ele><time>2026-04-25T06:42:28.002Z</time></trkpt><trkpt lat="43.04448638943475" lon="10.88204659933919"><ele>237.75</ele><time>2026-04-25T06:42:29.002Z</time></trkpt><trkpt lat="43.04445330771147" lon="10.881868271688713"><ele>234.0</ele><time>2026-04-25T06:42:30.002Z</time></trkpt><trkpt lat="43.0444111748723" lon="10.881704927814956"><ele>232.39999999999998</ele><time>2026-04-25T06:42:31.003Z</time></trkpt><trkpt lat="43.044370267976525" lon="10.881573990401366"><ele>230.79999999999998</ele><time>2026-04-25T06:42:32.003Z</time></trkpt><trkpt lat="43.04432885792394" lon="10.88146696714472"><ele>229.20000000000002</ele><time>2026-04-25T06:42:33.003Z</time></trkpt><trkpt lat="43.0443052369454" lon="10.881367128336201"><ele>227.60000000000002</ele><time>2026-04-25T06:42:34.003Z</time></trkpt><trkpt lat="43.044339513876004" lon="10.881253949787313"><ele>226.0</ele><time>2026-04-25T06:42:35.003Z</time></trkpt><trkpt lat="43.0443792243875" lon="10.88111991039234"><ele>226.0</ele><time>2026-04-25T06:42:36.003Z</time></trkpt><trkpt lat="43.04440454904388" lon="10.880979805061683"><ele>226.00000000000003</ele><time>2026-04-25T06:42:37.003Z</time></trkpt><trkpt lat="43.04440493037491" lon="10.88088123483108"><ele>226.00000000000003</ele><time>2026-04-25T06:42:38.003Z</time></trkpt><trkpt lat="43.04436627732659" lon="10.880719557155288"><ele>226.0</ele><time>2026-04-25T06:42:40.003Z</time></trkpt><trkpt lat="43.044309466524666" lon="10.88064986718269"><ele>226.0</ele><time>2026-04-25T06:42:41.003Z</time></trkpt><trkpt lat="43.04421267622853" lon="10.880636523818575"><ele>223.83333333333331</ele><time>2026-04-25T06:42:42.003Z</time></trkpt><trkpt lat="43.04412852869425" lon="10.880668564153433"><ele>221.66666666666666</ele><time>2026-04-25T06:42:43.003Z</time></trkpt><trkpt lat="43.044050968018816" lon="10.880727362844553"><ele>219.5</ele><time>2026-04-25T06:42:44.003Z</time></trkpt><trkpt lat="43.04398359245023" lon="10.880752043769963"><ele>217.33333333333331</ele><time>2026-04-25T06:42:45.003Z</time></trkpt><trkpt lat="43.04389231642888" lon="10.880718337772786"><ele>215.16666666666666</ele><time>2026-04-25T06:42:47.003Z</time></trkpt><trkpt lat="43.04386674298166" lon="10.880616902030754"><ele>213.0</ele><time>2026-04-25T06:42:48.003Z</time></trkpt><trkpt lat="43.04381171799617" lon="10.880535720861264"><ele>213.0</ele><time>2026-04-25T06:42:49.003Z</time></trkpt><trkpt lat="43.04375819010315" lon="10.880486064645943"><ele>213.0</ele><time>2026-04-25T06:42:50.003Z</time></trkpt><trkpt lat="43.043613277010294" lon="10.880489462805143"><ele>213.0</ele><time>2026-04-25T06:42:52.003Z</time></trkpt><trkpt lat="43.04348907776522" lon="10.88049563921291"><ele>213.0</ele><time>2026-04-25T06:42:53.003Z</time></trkpt><trkpt lat="43.043388047393016" lon="10.880482613043592"><ele>213.0</ele><time>2026-04-25T06:42:54.003Z</time></trkpt><trkpt lat="43.0433132027971" lon="10.88041954883202"><ele>211.2</ele><time>2026-04-25T06:42:55.003Z</time></trkpt><trkpt lat="43.04322541830911" lon="10.880351701851868"><ele>209.4</ele><time>2026-04-25T06:42:57.003Z</time></trkpt><trkpt lat="43.04320395943725" lon="10.880264338576113"><ele>207.6</ele><time>2026-04-25T06:42:58.003Z</time></trkpt><trkpt lat="43.043208849741085" lon="10.880123495475823"><ele>205.79999999999998</ele><time>2026-04-25T06:42:59.003Z</time></trkpt><trkpt lat="43.0432054916935" lon="10.879969180785778"><ele>204.0</ele><time>2026-04-25T06:43:00.003Z</time></trkpt><trkpt lat="43.0431984495508" lon="10.87983096059744"><ele>201.6</ele><time>2026-04-25T06:43:01.003Z</time></trkpt><trkpt lat="43.043185492899305" lon="10.879720286336392"><ele>199.2</ele><time>2026-04-25T06:43:02.003Z</time></trkpt><trkpt lat="43.04317397426925" lon="10.879619215212212"><ele>196.79999999999998</ele><time>2026-04-25T06:43:03.003Z</time></trkpt><trkpt lat="43.04317898088992" lon="10.879445830821245"><ele>194.39999999999998</ele><time>2026-04-25T06:43:05.003Z</time></trkpt><trkpt lat="43.04322946165168" lon="10.879342757067127"><ele>192.0</ele><time>2026-04-25T06:43:06.003Z</time></trkpt><trkpt lat="43.04328201336588" lon="10.879246155189941"><ele>192.66666666666666</ele><time>2026-04-25T06:43:07.003Z</time></trkpt><trkpt lat="43.04330938919199" lon="10.879152465246477"><ele>193.33333333333331</ele><time>2026-04-25T06:43:08.003Z</time></trkpt><trkpt lat="43.04330348926573" lon="10.87906090203522"><ele>194.0</ele><time>2026-04-25T06:43:09.003Z</time></trkpt><trkpt lat="43.04327358508146" lon="10.878979512529646"><ele>194.66666666666666</ele><time>2026-04-25T06:43:10.003Z</time></trkpt><trkpt lat="43.04322805019772" lon="10.878903070958975"><ele>195.33333333333331</ele><time>2026-04-25T06:43:11.003Z</time></trkpt><trkpt lat="43.04317452574223" lon="10.878797960829463"><ele>196.0</ele><time>2026-04-25T06:43:12.003Z</time></trkpt><trkpt lat="43.043112211197965" lon="10.878680977840148"><ele>193.8</ele><time>2026-04-25T06:43:13.003Z</time></trkpt><trkpt lat="43.043037907979176" lon="10.87855196304921"><ele>191.60000000000002</ele><time>2026-04-25T06:43:14.003Z</time></trkpt><trkpt lat="43.04297160104237" lon="10.878451748665753"><ele>189.4</ele><time>2026-04-25T06:43:15.003Z</time></trkpt><trkpt lat="43.0429057070103" lon="10.878364052325754"><ele>187.2</ele><time>2026-04-25T06:43:16.003Z</time></trkpt><trkpt lat="43.04283621978825" lon="10.878266892879267"><ele>185.0</ele><time>2026-04-25T06:43:17.003Z</time></trkpt><trkpt lat="43.04274782160839" lon="10.878188104777905"><ele>183.75</ele><time>2026-04-25T06:43:18.003Z</time></trkpt><trkpt lat="43.04263403828274" lon="10.878130907396503"><ele>182.5</ele><time>2026-04-25T06:43:19.003Z</time></trkpt><trkpt lat="43.042518639402644" lon="10.878025092866107"><ele>181.25</ele><time>2026-04-25T06:43:20.003Z</time></trkpt><trkpt lat="43.04239571444849" lon="10.877937626845085"><ele>180.0</ele><time>2026-04-25T06:43:21.003Z</time></trkpt><trkpt lat="43.042280735367854" lon="10.877879661798072"><ele>178.2</ele><time>2026-04-25T06:43:22.003Z</time></trkpt><trkpt lat="43.042189444905446" lon="10.877807123236396"><ele>176.4</ele><time>2026-04-25T06:43:23.003Z</time></trkpt><trkpt lat="43.04210535891896" lon="10.877724396780605"><ele>174.60000000000002</ele><time>2026-04-25T06:43:24.003Z</time></trkpt><trkpt lat="43.042017889200736" lon="10.877659430660952"><ele>172.8</ele><time>2026-04-25T06:43:25.003Z</time></trkpt><trkpt lat="43.041938413682246" lon="10.877600402046943"><ele>171.0</ele><time>2026-04-25T06:43:26.003Z</time></trkpt><trkpt lat="43.04186962919591" lon="10.877549313951622"><ele>170.5</ele><time>2026-04-25T06:43:27.003Z</time></trkpt><trkpt lat="43.04180562406571" lon="10.877500124513828"><ele>170.0</ele><time>2026-04-25T06:43:28.003Z</time></trkpt><trkpt lat="43.04174304057637" lon="10.877460358690373"><ele>169.5</ele><time>2026-04-25T06:43:29.003Z</time></trkpt><trkpt lat="43.04168364946401" lon="10.877403003620751"><ele>169.0</ele><time>2026-04-25T06:43:30.003Z</time></trkpt><trkpt lat="43.041631084817894" lon="10.877352700283568"><ele>168.5</ele><time>2026-04-25T06:43:31.003Z</time></trkpt><trkpt lat="43.0415375385136" lon="10.877280007213598"><ele>168.0</ele><time>2026-04-25T06:43:33.003Z</time></trkpt><trkpt lat="43.04145509206795" lon="10.87721309495288"><ele>167.2</ele><time>2026-04-25T06:43:36.003Z</time></trkpt><trkpt lat="43.04138496947144" lon="10.877163636798164"><ele>166.4</ele><time>2026-04-25T06:43:38.003Z</time></trkpt><trkpt lat="43.04132879703577" lon="10.877117764334695"><ele>165.6</ele><time>2026-04-25T06:43:40.003Z</time></trkpt><trkpt lat="43.041222646312846" lon="10.877022888682783"><ele>164.79999999999998</ele><time>2026-04-25T06:43:42.003Z</time></trkpt><trkpt lat="43.04113632460488" lon="10.876980838367075"><ele>164.0</ele><time>2026-04-25T06:43:43.003Z</time></trkpt><trkpt lat="43.04105190388262" lon="10.8769294619705"><ele>164.0</ele><time>2026-04-25T06:43:44.003Z</time></trkpt><trkpt lat="43.04095214979641" lon="10.876867081465512"><ele>164.0</ele><time>2026-04-25T06:43:45.003Z</time></trkpt><trkpt lat="43.04084762927655" lon="10.876804455886887"><ele>164.0</ele><time>2026-04-25T06:43:46.003Z</time></trkpt><trkpt lat="43.04072775690892" lon="10.876759047085645"><ele>164.0</ele><time>2026-04-25T06:43:47.003Z</time></trkpt><trkpt lat="43.04061298635564" lon="10.876690198585104"><ele>163.79999999999998</ele><time>2026-04-25T06:43:48.003Z</time></trkpt><trkpt lat="43.04049231788747" lon="10.87664065355379"><ele>163.6</ele><time>2026-04-25T06:43:49.003Z</time></trkpt><trkpt lat="43.04038978018216" lon="10.876601538481081"><ele>163.4</ele><time>2026-04-25T06:43:50.003Z</time></trkpt><trkpt lat="43.040293970720114" lon="10.876562865633344"><ele>163.2</ele><time>2026-04-25T06:43:51.003Z</time></trkpt><trkpt lat="43.04021102335546" lon="10.876513006677971"><ele>163.0</ele><time>2026-04-25T06:43:52.003Z</time></trkpt><trkpt lat="43.04013694533375" lon="10.876483560588715"><ele>163.0</ele><time>2026-04-25T06:43:53.003Z</time></trkpt><trkpt lat="43.040061547697334" lon="10.87643458763405"><ele>163.0</ele><time>2026-04-25T06:43:54.003Z</time></trkpt><trkpt lat="43.03998881300934" lon="10.876352952430947"><ele>163.0</ele><time>2026-04-25T06:43:55.003Z</time></trkpt><trkpt lat="43.03991084900423" lon="10.876273045072454"><ele>163.0</ele><time>2026-04-25T06:43:56.003Z</time></trkpt><trkpt lat="43.03982613099401" lon="10.876200152180596"><ele>163.0</ele><time>2026-04-25T06:43:57.003Z</time></trkpt><trkpt lat="43.03974260940584" lon="10.876157975838845"><ele>163.16666666666669</ele><time>2026-04-25T06:43:58.003Z</time></trkpt><trkpt lat="43.039648029287235" lon="10.876127591770329"><ele>163.33333333333334</ele><time>2026-04-25T06:43:59.003Z</time></trkpt><trkpt lat="43.03954922965829" lon="10.876095353194033"><ele>163.5</ele><time>2026-04-25T06:44:00.003Z</time></trkpt><trkpt lat="43.03946322710838" lon="10.876044655229958"><ele>163.66666666666666</ele><time>2026-04-25T06:44:01.003Z</time></trkpt><trkpt lat="43.039398177475064" lon="10.875985178481786"><ele>163.83333333333331</ele><time>2026-04-25T06:44:02.003Z</time></trkpt><trkpt lat="43.039337531872945" lon="10.8759507423748"><ele>164.0</ele><time>2026-04-25T06:44:03.003Z</time></trkpt><trkpt lat="43.03920701717787" lon="10.875970631883472"><ele>164.0</ele><time>2026-04-25T06:44:05.003Z</time></trkpt><trkpt lat="43.03909085941013" lon="10.87590351405793"><ele>164.0</ele><time>2026-04-25T06:44:07.003Z</time></trkpt><trkpt lat="43.03900239434013" lon="10.875846312335174"><ele>164.0</ele><time>2026-04-25T06:44:08.003Z</time></trkpt><trkpt lat="43.03891485736237" lon="10.875754646027628"><ele>164.0</ele><time>2026-04-25T06:44:09.003Z</time></trkpt><trkpt lat="43.03882233922615" lon="10.875658402878965"><ele>164.0</ele><time>2026-04-25T06:44:10.003Z</time></trkpt><trkpt lat="43.03874308242909" lon="10.875550358270823"><ele>164.0</ele><time>2026-04-25T06:44:11.003Z</time></trkpt><trkpt lat="43.038663836566855" lon="10.87543749578256"><ele>164.0</ele><time>2026-04-25T06:44:12.003Z</time></trkpt><trkpt lat="43.038585174464906" lon="10.875317799608881"><ele>164.0</ele><time>2026-04-25T06:44:13.003Z</time></trkpt><trkpt lat="43.038503997702385" lon="10.875198073477709"><ele>163.79999999999998</ele><time>2026-04-25T06:44:14.003Z</time></trkpt><trkpt lat="43.03842230362135" lon="10.875076313217683"><ele>163.6</ele><time>2026-04-25T06:44:15.003Z</time></trkpt><trkpt lat="43.03835489854111" lon="10.87496058747505"><ele>163.4</ele><time>2026-04-25T06:44:16.003Z</time></trkpt><trkpt lat="43.03828973101164" lon="10.874860327571344"><ele>163.2</ele><time>2026-04-25T06:44:17.003Z</time></trkpt><trkpt lat="43.03822540813371" lon="10.874782597242815"><ele>163.0</ele><time>2026-04-25T06:44:18.003Z</time></trkpt><trkpt lat="43.03816156847131" lon="10.874712976023671"><ele>163.0</ele><time>2026-04-25T06:44:19.003Z</time></trkpt><trkpt lat="43.03810490304714" lon="10.874620776687467"><ele>163.0</ele><time>2026-04-25T06:44:20.003Z</time></trkpt><trkpt lat="43.03805417902186" lon="10.874510607591608"><ele>163.0</ele><time>2026-04-25T06:44:21.003Z</time></trkpt><trkpt lat="43.03800503612574" lon="10.874368709017574"><ele>163.0</ele><time>2026-04-25T06:44:22.003Z</time></trkpt><trkpt lat="43.03793626393036" lon="10.874228303508113"><ele>163.0</ele><time>2026-04-25T06:44:23.003Z</time></trkpt><trkpt lat="43.03786673657659" lon="10.874083384443514"><ele>163.0</ele><time>2026-04-25T06:44:24.003Z</time></trkpt><trkpt lat="43.037789957690556" lon="10.873945395748368"><ele>163.0</ele><time>2026-04-25T06:44:25.003Z</time></trkpt><trkpt lat="43.037743859503955" lon="10.873781010846935"><ele>163.0</ele><time>2026-04-25T06:44:26.003Z</time></trkpt><trkpt lat="43.03768551785765" lon="10.873627346889043"><ele>163.0</ele><time>2026-04-25T06:44:27.003Z</time></trkpt><trkpt lat="43.03761986256933" lon="10.873479750917777"><ele>163.75</ele><time>2026-04-25T06:44:28.003Z</time></trkpt><trkpt lat="43.0375507391797" lon="10.873337226112126"><ele>164.5</ele><time>2026-04-25T06:44:29.003Z</time></trkpt><trkpt lat="43.03750025123675" lon="10.873190084359097"><ele>165.25</ele><time>2026-04-25T06:44:30.003Z</time></trkpt><trkpt lat="43.03743036494033" lon="10.873051510225302"><ele>166.0</ele><time>2026-04-25T06:44:31.003Z</time></trkpt><trkpt lat="43.03736142018553" lon="10.872917833404728"><ele>166.0</ele><time>2026-04-25T06:44:32.003Z</time></trkpt><trkpt lat="43.03730160561964" lon="10.872784556418438"><ele>166.0</ele><time>2026-04-25T06:44:33.003Z</time></trkpt><trkpt lat="43.03723866215554" lon="10.872661478738047"><ele>166.0</ele><time>2026-04-25T06:44:34.003Z</time></trkpt><trkpt lat="43.03717156443163" lon="10.872542940788165"><ele>166.0</ele><time>2026-04-25T06:44:35.003Z</time></trkpt><trkpt lat="43.03710730701409" lon="10.872420006888209"><ele>166.0</ele><time>2026-04-25T06:44:36.003Z</time></trkpt><trkpt lat="43.03702218476967" lon="10.87231730353689"><ele>166.8</ele><time>2026-04-25T06:44:37.003Z</time></trkpt><trkpt lat="43.03693068218509" lon="10.872220466945071"><ele>167.60000000000002</ele><time>2026-04-25T06:44:38.003Z</time></trkpt><trkpt lat="43.036835335083445" lon="10.872136997424061"><ele>168.4</ele><time>2026-04-25T06:44:39.003Z</time></trkpt><trkpt lat="43.036751726870335" lon="10.872041900531313"><ele>169.2</ele><time>2026-04-25T06:44:40.003Z</time></trkpt><trkpt lat="43.036665600314926" lon="10.871955081957758"><ele>170.0</ele><time>2026-04-25T06:44:41.003Z</time></trkpt><trkpt lat="43.03658349068673" lon="10.871869058536461"><ele>170.66666666666666</ele><time>2026-04-25T06:44:42.003Z</time></trkpt><trkpt lat="43.03649927740824" lon="10.871794884672113"><ele>171.33333333333331</ele><time>2026-04-25T06:44:43.003Z</time></trkpt><trkpt lat="43.03641182242526" lon="10.871721394426295"><ele>172.0</ele><time>2026-04-25T06:44:44.003Z</time></trkpt><trkpt lat="43.036338057320776" lon="10.871662391871107"><ele>172.66666666666666</ele><time>2026-04-25T06:44:45.003Z</time></trkpt><trkpt lat="43.036290720207866" lon="10.871595926864881"><ele>173.33333333333334</ele><time>2026-04-25T06:44:46.003Z</time></trkpt><trkpt lat="43.036262364310474" lon="10.871490766221038"><ele>174.0</ele><time>2026-04-25T06:44:48.003Z</time></trkpt><trkpt lat="43.036132291502916" lon="10.871496221125934"><ele>173.79999999999998</ele><time>2026-04-25T06:44:51.003Z</time></trkpt><trkpt lat="43.03606847211803" lon="10.871421566521953"><ele>173.6</ele><time>2026-04-25T06:44:52.003Z</time></trkpt><trkpt lat="43.0359844909897" lon="10.871358522313127"><ele>173.4</ele><time>2026-04-25T06:44:53.003Z</time></trkpt><trkpt lat="43.035884407422664" lon="10.871299608113153"><ele>173.2</ele><time>2026-04-25T06:44:54.003Z</time></trkpt><trkpt lat="43.035779383210105" lon="10.871243325377032"><ele>173.0</ele><time>2026-04-25T06:44:55.003Z</time></trkpt><trkpt lat="43.035698988403915" lon="10.87115523089859"><ele>173.0</ele><time>2026-04-25T06:44:56.003Z</time></trkpt><trkpt lat="43.03563026165277" lon="10.871094148348774"><ele>173.0</ele><time>2026-04-25T06:44:57.003Z</time></trkpt><trkpt lat="43.03555739321449" lon="10.87102949296192"><ele>173.0</ele><time>2026-04-25T06:44:58.003Z</time></trkpt><trkpt lat="43.035494995984294" lon="10.870974128557052"><ele>173.0</ele><time>2026-04-25T06:44:59.003Z</time></trkpt><trkpt lat="43.035421600002685" lon="10.870933997600464"><ele>173.0</ele><time>2026-04-25T06:45:00.003Z</time></trkpt><trkpt lat="43.035359621849324" lon="10.870867069510348"><ele>173.0</ele><time>2026-04-25T06:45:01.003Z</time></trkpt><trkpt lat="43.0352740721915" lon="10.870802559946283"><ele>173.2</ele><time>2026-04-25T06:45:02.003Z</time></trkpt><trkpt lat="43.03518583643967" lon="10.870728255297147"><ele>173.4</ele><time>2026-04-25T06:45:03.003Z</time></trkpt><trkpt lat="43.0350955910069" lon="10.870653658868362"><ele>173.6</ele><time>2026-04-25T06:45:04.003Z</time></trkpt><trkpt lat="43.03500550307569" lon="10.870553314199991"><ele>173.79999999999998</ele><time>2026-04-25T06:45:05.003Z</time></trkpt><trkpt lat="43.03491454461222" lon="10.870476105565366"><ele>174.0</ele><time>2026-04-25T06:45:06.003Z</time></trkpt><trkpt lat="43.03482488968323" lon="10.870396812530458"><ele>174.39999999999998</ele><time>2026-04-25T06:45:07.003Z</time></trkpt><trkpt lat="43.03474175309199" lon="10.870321731768158"><ele>174.8</ele><time>2026-04-25T06:45:08.003Z</time></trkpt><trkpt lat="43.03465573226122" lon="10.870242561307439"><ele>175.2</ele><time>2026-04-25T06:45:09.003Z</time></trkpt><trkpt lat="43.034562638151456" lon="10.870156880828466"><ele>175.60000000000002</ele><time>2026-04-25T06:45:10.003Z</time></trkpt><trkpt lat="43.03446869707009" lon="10.870071082584493"><ele>176.0</ele><time>2026-04-25T06:45:11.003Z</time></trkpt><trkpt lat="43.034376669724686" lon="10.870012164878085"><ele>176.0</ele><time>2026-04-25T06:45:12.003Z</time></trkpt><trkpt lat="43.03428591444542" lon="10.869921141811915"><ele>176.0</ele><time>2026-04-25T06:45:13.003Z</time></trkpt><trkpt lat="43.03419204362115" lon="10.869847231631788"><ele>176.0</ele><time>2026-04-25T06:45:14.003Z</time></trkpt><trkpt lat="43.03411874233671" lon="10.869771734373376"><ele>176.0</ele><time>2026-04-25T06:45:15.003Z</time></trkpt><trkpt lat="43.03405486091197" lon="10.869721775614126"><ele>176.0</ele><time>2026-04-25T06:45:16.004Z</time></trkpt><trkpt lat="43.033999398456146" lon="10.869680223265144"><ele>176.0</ele><time>2026-04-25T06:45:17.004Z</time></trkpt><trkpt lat="43.03391302463982" lon="10.869585265530453"><ele>176.25</ele><time>2026-04-25T06:45:19.004Z</time></trkpt><trkpt lat="43.03386973663636" lon="10.869489095662908"><ele>176.5</ele><time>2026-04-25T06:45:21.004Z</time></trkpt><trkpt lat="43.033834555358034" lon="10.869395381467559"><ele>176.75</ele><time>2026-04-25T06:45:26.004Z</time></trkpt><trkpt lat="43.03380782390987" lon="10.869284776706127"><ele>177.0</ele><time>2026-04-25T06:45:30.004Z</time></trkpt><trkpt lat="43.03326896640346" lon="10.869135776285072"><ele>177.0</ele><time>2026-04-25T06:45:40.004Z</time></trkpt><trkpt lat="43.03315325976897" lon="10.869094096088084"><ele>177.0</ele><time>2026-04-25T06:45:42.004Z</time></trkpt><trkpt lat="43.03308890444314" lon="10.869088695011307"><ele>177.0</ele><time>2026-04-25T06:45:44.004Z</time></trkpt><trkpt lat="43.033021538865015" lon="10.869045756286383"><ele>177.0</ele><time>2026-04-25T06:45:46.004Z</time></trkpt><trkpt lat="43.032931189620726" lon="10.868987687276736"><ele>177.0</ele><time>2026-04-25T06:45:48.004Z</time></trkpt><trkpt lat="43.032849370031954" lon="10.86894411213723"><ele>177.0</ele><time>2026-04-25T06:45:50.004Z</time></trkpt><trkpt lat="43.03281083800641" lon="10.868861322005344"><ele>177.0</ele><time>2026-04-25T06:45:53.004Z</time></trkpt><trkpt lat="43.03275378461109" lon="10.86882230299995"><ele>177.0</ele><time>2026-04-25T06:45:55.004Z</time></trkpt><trkpt lat="43.03270230232033" lon="10.86876197380331"><ele>177.0</ele><time>2026-04-25T06:45:56.004Z</time></trkpt><trkpt lat="43.032626576544224" lon="10.868669356957469"><ele>177.0</ele><time>2026-04-25T06:45:58.004Z</time></trkpt><trkpt lat="43.03258649257928" lon="10.86856577643972"><ele>177.0</ele><time>2026-04-25T06:46:00.004Z</time></trkpt><trkpt lat="43.032516763220386" lon="10.868439376725517"><ele>177.0</ele><time>2026-04-25T06:46:03.004Z</time></trkpt><trkpt lat="43.032458883597094" lon="10.868405022215695"><ele>177.16666666666666</ele><time>2026-04-25T06:46:05.004Z</time></trkpt><trkpt lat="43.032376743852964" lon="10.868348600967863"><ele>177.33333333333334</ele><time>2026-04-25T06:46:07.004Z</time></trkpt><trkpt lat="43.03230619807886" lon="10.868307248128824"><ele>177.5</ele><time>2026-04-25T06:46:08.004Z</time></trkpt><trkpt lat="43.03222240019119" lon="10.86828304194945"><ele>177.66666666666669</ele><time>2026-04-25T06:46:09.004Z</time></trkpt><trkpt lat="43.032163221667" lon="10.868231911704902"><ele>177.83333333333334</ele><time>2026-04-25T06:46:10.004Z</time></trkpt><trkpt lat="43.03210514879546" lon="10.86818375813507"><ele>178.0</ele><time>2026-04-25T06:46:11.004Z</time></trkpt><trkpt lat="43.03200799847219" lon="10.8681435437604"><ele>178.0</ele><time>2026-04-25T06:46:13.004Z</time></trkpt><trkpt lat="43.03192526626418" lon="10.868081048500699"><ele>178.0</ele><time>2026-04-25T06:46:15.004Z</time></trkpt><trkpt lat="43.03181212618397" lon="10.86802080617038"><ele>178.0</ele><time>2026-04-25T06:46:17.004Z</time></trkpt><trkpt lat="43.03174389347579" lon="10.868008988451558"><ele>178.0</ele><time>2026-04-25T06:46:18.004Z</time></trkpt><trkpt lat="43.031667139624176" lon="10.867981251866585"><ele>178.0</ele><time>2026-04-25T06:46:19.004Z</time></trkpt><trkpt lat="43.03157945993128" lon="10.867909135077722"><ele>177.16666666666669</ele><time>2026-04-25T06:46:21.004Z</time></trkpt><trkpt lat="43.03149556845045" lon="10.867828223184347"><ele>176.33333333333334</ele><time>2026-04-25T06:46:23.004Z</time></trkpt><trkpt lat="43.03140131225702" lon="10.867771842438694"><ele>175.5</ele><time>2026-04-25T06:46:26.004Z</time></trkpt><trkpt lat="43.03135369420781" lon="10.867706443231807"><ele>174.66666666666666</ele><time>2026-04-25T06:46:30.004Z</time></trkpt><trkpt lat="43.0312837681648" lon="10.867684373062936"><ele>173.83333333333331</ele><time>2026-04-25T06:46:32.004Z</time></trkpt><trkpt lat="43.031224147903814" lon="10.867580613423199"><ele>173.0</ele><time>2026-04-25T06:46:34.004Z</time></trkpt><trkpt lat="43.03118943018134" lon="10.867504061730102"><ele>173.66666666666666</ele><time>2026-04-25T06:46:36.004Z</time></trkpt><trkpt lat="43.03114184583674" lon="10.86742727470439"><ele>174.33333333333331</ele><time>2026-04-25T06:46:38.004Z</time></trkpt><trkpt lat="43.03105980611555" lon="10.867367795569443"><ele>175.0</ele><time>2026-04-25T06:46:41.004Z</time></trkpt><trkpt lat="43.03098944749044" lon="10.867343586548861"><ele>175.66666666666666</ele><time>2026-04-25T06:46:43.004Z</time></trkpt><trkpt lat="43.03090878958302" lon="10.867317262748623"><ele>176.33333333333334</ele><time>2026-04-25T06:46:45.004Z</time></trkpt><trkpt lat="43.030822033141135" lon="10.867222628190738"><ele>177.0</ele><time>2026-04-25T06:46:47.004Z</time></trkpt><trkpt lat="43.03076121263803" lon="10.867152462713717"><ele>177.0</ele><time>2026-04-25T06:46:50.004Z</time></trkpt><trkpt lat="43.030672766680716" lon="10.867094759118098"><ele>177.0</ele><time>2026-04-25T06:46:53.004Z</time></trkpt><trkpt lat="43.03056853941534" lon="10.867030507105776"><ele>177.0</ele><time>2026-04-25T06:46:55.004Z</time></trkpt><trkpt lat="43.030513030391376" lon="10.866942189833345"><ele>177.0</ele><time>2026-04-25T06:46:57.004Z</time></trkpt><trkpt lat="43.03047926655807" lon="10.86686248643979"><ele>177.0</ele><time>2026-04-25T06:46:59.004Z</time></trkpt><trkpt lat="43.030432753716994" lon="10.866771403073072"><ele>177.0</ele><time>2026-04-25T06:47:01.004Z</time></trkpt><trkpt lat="43.03037979512172" lon="10.866662874694072"><ele>178.0</ele><time>2026-04-25T06:47:03.004Z</time></trkpt><trkpt lat="43.030293322536316" lon="10.866618266231843"><ele>179.0</ele><time>2026-04-25T06:47:05.004Z</time></trkpt><trkpt lat="43.03019175736941" lon="10.866631241233424"><ele>180.0</ele><time>2026-04-25T06:47:07.004Z</time></trkpt><trkpt lat="43.03008519057887" lon="10.86664903586281"><ele>181.0</ele><time>2026-04-25T06:47:10.004Z</time></trkpt><trkpt lat="43.02999425435218" lon="10.866650479724996"><ele>182.0</ele><time>2026-04-25T06:47:12.004Z</time></trkpt><trkpt lat="43.02991144528919" lon="10.86658901605454"><ele>183.16666666666666</ele><time>2026-04-25T06:47:14.004Z</time></trkpt><trkpt lat="43.0297947334166" lon="10.866576630632714"><ele>184.33333333333331</ele><time>2026-04-25T06:47:17.004Z</time></trkpt><trkpt lat="43.02972010516858" lon="10.86655975521068"><ele>185.5</ele><time>2026-04-25T06:47:19.004Z</time></trkpt><trkpt lat="43.02963898184772" lon="10.866602057073221"><ele>186.66666666666666</ele><time>2026-04-25T06:47:22.004Z</time></trkpt><trkpt lat="43.02956512140439" lon="10.866635198512078"><ele>187.83333333333334</ele><time>2026-04-25T06:47:24.004Z</time></trkpt><trkpt lat="43.029479921726384" lon="10.86666638858368"><ele>189.0</ele><time>2026-04-25T06:47:26.004Z</time></trkpt><trkpt lat="43.02937074392168" lon="10.86669079514976"><ele>189.0</ele><time>2026-04-25T06:47:28.004Z</time></trkpt><trkpt lat="43.029299105932836" lon="10.866760464616771"><ele>189.0</ele><time>2026-04-25T06:47:31.004Z</time></trkpt><trkpt lat="43.02919586246753" lon="10.866831309351815"><ele>189.0</ele><time>2026-04-25T06:47:34.004Z</time></trkpt><trkpt lat="43.02909372931905" lon="10.866861452630245"><ele>189.0</ele><time>2026-04-25T06:47:36.004Z</time></trkpt><trkpt lat="43.029050166191496" lon="10.86692903040312"><ele>189.0</ele><time>2026-04-25T06:47:37.004Z</time></trkpt><trkpt lat="43.028981901911095" lon="10.866975496101771"><ele>189.5</ele><time>2026-04-25T06:47:38.004Z</time></trkpt><trkpt lat="43.02891133660607" lon="10.866993800695818"><ele>190.0</ele><time>2026-04-25T06:47:39.004Z</time></trkpt><trkpt lat="43.028830306703085" lon="10.867002566614385"><ele>190.5</ele><time>2026-04-25T06:47:40.004Z</time></trkpt><trkpt lat="43.02875126998072" lon="10.867018941660282"><ele>191.0</ele><time>2026-04-25T06:47:41.004Z</time></trkpt><trkpt lat="43.028686565852674" lon="10.867040353888251"><ele>191.5</ele><time>2026-04-25T06:47:42.004Z</time></trkpt><trkpt lat="43.028614106210036" lon="10.867076386337434"><ele>192.0</ele><time>2026-04-25T06:47:43.004Z</time></trkpt><trkpt lat="43.028529574623846" lon="10.867138523885044"><ele>192.0</ele><time>2026-04-25T06:47:44.004Z</time></trkpt><trkpt lat="43.02843484196482" lon="10.86718906932752"><ele>192.0</ele><time>2026-04-25T06:47:45.004Z</time></trkpt><trkpt lat="43.02835057545489" lon="10.867186678401884"><ele>192.0</ele><time>2026-04-25T06:47:46.004Z</time></trkpt><trkpt lat="43.028260249178096" lon="10.867125912107227"><ele>192.0</ele><time>2026-04-25T06:47:47.004Z</time></trkpt><trkpt lat="43.02815171350076" lon="10.867048292891111"><ele>192.0</ele><time>2026-04-25T06:47:48.004Z</time></trkpt><trkpt lat="43.02804713215941" lon="10.86696187852647"><ele>192.0</ele><time>2026-04-25T06:47:49.004Z</time></trkpt><trkpt lat="43.02793296485728" lon="10.866883217650285"><ele>192.0</ele><time>2026-04-25T06:47:50.004Z</time></trkpt><trkpt lat="43.02781037581566" lon="10.866786433317134"><ele>192.0</ele><time>2026-04-25T06:47:51.004Z</time></trkpt><trkpt lat="43.02766510136324" lon="10.866699377934319"><ele>192.0</ele><time>2026-04-25T06:47:52.004Z</time></trkpt><trkpt lat="43.027527564432155" lon="10.866607857963459"><ele>191.33333333333334</ele><time>2026-04-25T06:47:53.004Z</time></trkpt><trkpt lat="43.02738722625101" lon="10.866506715815405"><ele>190.66666666666669</ele><time>2026-04-25T06:47:54.004Z</time></trkpt><trkpt lat="43.02723498287308" lon="10.866410800033718"><ele>190.0</ele><time>2026-04-25T06:47:55.004Z</time></trkpt><trkpt lat="43.027088211435114" lon="10.866315111332222"><ele>190.0</ele><time>2026-04-25T06:47:56.004Z</time></trkpt><trkpt lat="43.026933492240666" lon="10.866216717843544"><ele>190.0</ele><time>2026-04-25T06:47:57.004Z</time></trkpt><trkpt lat="43.02677912196023" lon="10.866107695693481"><ele>190.0</ele><time>2026-04-25T06:47:58.004Z</time></trkpt><trkpt lat="43.026630931291876" lon="10.865997531932422"><ele>187.75</ele><time>2026-04-25T06:47:59.004Z</time></trkpt><trkpt lat="43.026496383485934" lon="10.865900990875453"><ele>185.5</ele><time>2026-04-25T06:48:00.004Z</time></trkpt><trkpt lat="43.02636791175858" lon="10.86580579171073"><ele>183.25</ele><time>2026-04-25T06:48:01.005Z</time></trkpt><trkpt lat="43.02624940003899" lon="10.865692786371191"><ele>181.0</ele><time>2026-04-25T06:48:02.005Z</time></trkpt><trkpt lat="43.02614223273846" lon="10.86555198079801"><ele>181.0</ele><time>2026-04-25T06:48:03.005Z</time></trkpt><trkpt lat="43.02604055521125" lon="10.865394789733612"><ele>181.0</ele><time>2026-04-25T06:48:04.005Z</time></trkpt><trkpt lat="43.02595062326358" lon="10.865225041114805"><ele>181.0</ele><time>2026-04-25T06:48:05.005Z</time></trkpt><trkpt lat="43.025874428158254" lon="10.865045929702843"><ele>178.66666666666669</ele><time>2026-04-25T06:48:06.005Z</time></trkpt><trkpt lat="43.02580122997712" lon="10.864863885058728"><ele>176.33333333333334</ele><time>2026-04-25T06:48:07.005Z</time></trkpt><trkpt lat="43.02572185375423" lon="10.864675748782918"><ele>174.0</ele><time>2026-04-25T06:48:08.005Z</time></trkpt><trkpt lat="43.025647355276654" lon="10.864495030910687"><ele>174.0</ele><time>2026-04-25T06:48:09.005Z</time></trkpt><trkpt lat="43.02557792131214" lon="10.864308584079325"><ele>174.0</ele><time>2026-04-25T06:48:10.005Z</time></trkpt><trkpt lat="43.0254976546725" lon="10.864118993195795"><ele>174.0</ele><time>2026-04-25T06:48:11.005Z</time></trkpt><trkpt lat="43.025420408385344" lon="10.863936058364748"><ele>173.0</ele><time>2026-04-25T06:48:12.005Z</time></trkpt><trkpt lat="43.02534344933399" lon="10.863747693108348"><ele>172.0</ele><time>2026-04-25T06:48:13.005Z</time></trkpt><trkpt lat="43.02527223663412" lon="10.863565269811021"><ele>171.0</ele><time>2026-04-25T06:48:14.005Z</time></trkpt><trkpt lat="43.025197057726636" lon="10.863381523978516"><ele>171.0</ele><time>2026-04-25T06:48:15.005Z</time></trkpt><trkpt lat="43.02511611616601" lon="10.863198013119643"><ele>171.0</ele><time>2026-04-25T06:48:16.005Z</time></trkpt><trkpt lat="43.02503745401025" lon="10.863010287505672"><ele>171.0</ele><time>2026-04-25T06:48:17.005Z</time></trkpt><trkpt lat="43.024957416642906" lon="10.862819530855615"><ele>169.0</ele><time>2026-04-25T06:48:18.005Z</time></trkpt><trkpt lat="43.024877103492045" lon="10.862626952286412"><ele>167.0</ele><time>2026-04-25T06:48:19.005Z</time></trkpt><trkpt lat="43.02479948768677" lon="10.8624382796721"><ele>165.0</ele><time>2026-04-25T06:48:20.005Z</time></trkpt><trkpt lat="43.02472080742652" lon="10.862247385601366"><ele>165.0</ele><time>2026-04-25T06:48:21.005Z</time></trkpt><trkpt lat="43.02466118874921" lon="10.862057303593325"><ele>165.0</ele><time>2026-04-25T06:48:22.005Z</time></trkpt><trkpt lat="43.024592922231584" lon="10.861889058572858"><ele>165.0</ele><time>2026-04-25T06:48:23.005Z</time></trkpt><trkpt lat="43.0245085741689" lon="10.861721555334773"><ele>165.0</ele><time>2026-04-25T06:48:24.005Z</time></trkpt><trkpt lat="43.02444501264857" lon="10.861527752786127"><ele>165.66666666666666</ele><time>2026-04-25T06:48:25.005Z</time></trkpt><trkpt lat="43.024357370805255" lon="10.861356826358175"><ele>166.33333333333331</ele><time>2026-04-25T06:48:26.005Z</time></trkpt><trkpt lat="43.02428562035208" lon="10.86117131725221"><ele>167.0</ele><time>2026-04-25T06:48:27.005Z</time></trkpt><trkpt lat="43.024211529913046" lon="10.860983387629009"><ele>166.33333333333331</ele><time>2026-04-25T06:48:28.005Z</time></trkpt><trkpt lat="43.02413143089244" lon="10.860789404062466"><ele>165.66666666666666</ele><time>2026-04-25T06:48:29.005Z</time></trkpt><trkpt lat="43.024056148320646" lon="10.860609396220012"><ele>165.0</ele><time>2026-04-25T06:48:30.005Z</time></trkpt><trkpt lat="43.023973607111174" lon="10.860422166491668"><ele>165.0</ele><time>2026-04-25T06:48:31.005Z</time></trkpt><trkpt lat="43.023893210422315" lon="10.860233481352088"><ele>165.0</ele><time>2026-04-25T06:48:32.005Z</time></trkpt><trkpt lat="43.023816129375504" lon="10.860048086301314"><ele>165.0</ele><time>2026-04-25T06:48:33.005Z</time></trkpt><trkpt lat="43.02373856850278" lon="10.859863510480784"><ele>165.33333333333334</ele><time>2026-04-25T06:48:34.005Z</time></trkpt><trkpt lat="43.02366337677181" lon="10.85968672238122"><ele>165.66666666666669</ele><time>2026-04-25T06:48:35.005Z</time></trkpt><trkpt lat="43.023601512804376" lon="10.85949561923291"><ele>166.0</ele><time>2026-04-25T06:48:36.005Z</time></trkpt><trkpt lat="43.02352645434612" lon="10.859314090771631"><ele>166.0</ele><time>2026-04-25T06:48:37.005Z</time></trkpt><trkpt lat="43.02344657637521" lon="10.85913687066923"><ele>166.0</ele><time>2026-04-25T06:48:38.005Z</time></trkpt><trkpt lat="43.0233620925834" lon="10.858970352284134"><ele>166.0</ele><time>2026-04-25T06:48:39.005Z</time></trkpt><trkpt lat="43.02327829661776" lon="10.858802249663306"><ele>166.0</ele><time>2026-04-25T06:48:40.005Z</time></trkpt><trkpt lat="43.023202670700734" lon="10.858655514773064"><ele>166.0</ele><time>2026-04-25T06:48:41.005Z</time></trkpt><trkpt lat="43.023117902317615" lon="10.858525954280074"><ele>166.0</ele><time>2026-04-25T06:48:42.005Z</time></trkpt><trkpt lat="43.02302718269075" lon="10.858407209205577"><ele>166.0</ele><time>2026-04-25T06:48:43.005Z</time></trkpt><trkpt lat="43.02291696423328" lon="10.858281825860761"><ele>166.0</ele><time>2026-04-25T06:48:44.005Z</time></trkpt><trkpt lat="43.02280835801461" lon="10.85812465646413"><ele>167.33333333333334</ele><time>2026-04-25T06:48:45.005Z</time></trkpt><trkpt lat="43.02267595656921" lon="10.857978419488235"><ele>168.66666666666666</ele><time>2026-04-25T06:48:46.005Z</time></trkpt><trkpt lat="43.022544030348534" lon="10.857838366175383"><ele>170.0</ele><time>2026-04-25T06:48:47.005Z</time></trkpt><trkpt lat="43.022406169309235" lon="10.85769281854853"><ele>170.66666666666666</ele><time>2026-04-25T06:48:48.005Z</time></trkpt><trkpt lat="43.02227088962968" lon="10.857549266472088"><ele>171.33333333333334</ele><time>2026-04-25T06:48:49.005Z</time></trkpt><trkpt lat="43.0221355050592" lon="10.857404940656929"><ele>172.0</ele><time>2026-04-25T06:48:50.005Z</time></trkpt><trkpt lat="43.02200114355677" lon="10.857261656325715"><ele>172.0</ele><time>2026-04-25T06:48:51.005Z</time></trkpt><trkpt lat="43.02186186137474" lon="10.857117512508305"><ele>172.0</ele><time>2026-04-25T06:48:52.005Z</time></trkpt><trkpt lat="43.021711900609375" lon="10.85698133483896"><ele>172.0</ele><time>2026-04-25T06:48:53.005Z</time></trkpt><trkpt lat="43.02156853613811" lon="10.856826901883403"><ele>171.0</ele><time>2026-04-25T06:48:54.005Z</time></trkpt><trkpt lat="43.021428998210126" lon="10.856679214939444"><ele>170.0</ele><time>2026-04-25T06:48:55.005Z</time></trkpt><trkpt lat="43.021293113063415" lon="10.856528675893168"><ele>169.0</ele><time>2026-04-25T06:48:56.005Z</time></trkpt><trkpt lat="43.02114960614255" lon="10.856372954706986"><ele>169.0</ele><time>2026-04-25T06:48:57.005Z</time></trkpt><trkpt lat="43.02101180463632" lon="10.85622434539627"><ele>169.0</ele><time>2026-04-25T06:48:58.005Z</time></trkpt><trkpt lat="43.02087508599679" lon="10.856071908679262"><ele>169.0</ele><time>2026-04-25T06:48:59.005Z</time></trkpt><trkpt lat="43.020735434452945" lon="10.855926915374525"><ele>167.33333333333334</ele><time>2026-04-25T06:49:00.005Z</time></trkpt><trkpt lat="43.02059730363996" lon="10.85578307981711"><ele>165.66666666666666</ele><time>2026-04-25T06:49:01.005Z</time></trkpt><trkpt lat="43.02045894676329" lon="10.855640810788854"><ele>164.0</ele><time>2026-04-25T06:49:02.005Z</time></trkpt><trkpt lat="43.02032996660777" lon="10.85551237339025"><ele>164.0</ele><time>2026-04-25T06:49:03.005Z</time></trkpt><trkpt lat="43.02020616330967" lon="10.855394968390572"><ele>164.0</ele><time>2026-04-25T06:49:04.005Z</time></trkpt><trkpt lat="43.02007876839753" lon="10.85526616850163"><ele>164.0</ele><time>2026-04-25T06:49:05.005Z</time></trkpt><trkpt lat="43.01995122503543" lon="10.85514480576463"><ele>162.33333333333331</ele><time>2026-04-25T06:49:06.005Z</time></trkpt><trkpt lat="43.01982257668884" lon="10.855023931954696"><ele>160.66666666666666</ele><time>2026-04-25T06:49:07.005Z</time></trkpt><trkpt lat="43.01969140539847" lon="10.854908618933049"><ele>159.0</ele><time>2026-04-25T06:49:08.005Z</time></trkpt><trkpt lat="43.01955517534282" lon="10.854801130837142"><ele>159.0</ele><time>2026-04-25T06:49:09.005Z</time></trkpt><trkpt lat="43.01941724074942" lon="10.854694888682111"><ele>159.0</ele><time>2026-04-25T06:49:10.005Z</time></trkpt><trkpt lat="43.01927710505907" lon="10.854591385023815"><ele>159.0</ele><time>2026-04-25T06:49:11.005Z</time></trkpt><trkpt lat="43.019134305437824" lon="10.85448895680675"><ele>159.33333333333334</ele><time>2026-04-25T06:49:12.005Z</time></trkpt><trkpt lat="43.01898602969187" lon="10.85439597426098"><ele>159.66666666666669</ele><time>2026-04-25T06:49:13.005Z</time></trkpt><trkpt lat="43.018836593298715" lon="10.854305500797471"><ele>160.0</ele><time>2026-04-25T06:49:14.005Z</time></trkpt><trkpt lat="43.01868525325427" lon="10.854213848703424"><ele>159.0</ele><time>2026-04-25T06:49:15.005Z</time></trkpt><trkpt lat="43.01853624821896" lon="10.854119840231384"><ele>158.0</ele><time>2026-04-25T06:49:16.005Z</time></trkpt><trkpt lat="43.01838655356659" lon="10.85402992084973"><ele>157.0</ele><time>2026-04-25T06:49:17.005Z</time></trkpt><trkpt lat="43.01823309480926" lon="10.8539368654189"><ele>157.0</ele><time>2026-04-25T06:49:18.005Z</time></trkpt><trkpt lat="43.01808169009974" lon="10.853844861278397"><ele>157.0</ele><time>2026-04-25T06:49:19.005Z</time></trkpt><trkpt lat="43.01793891136436" lon="10.853760965337118"><ele>157.0</ele><time>2026-04-25T06:49:20.005Z</time></trkpt><trkpt lat="43.01780467729282" lon="10.853686598566801"><ele>157.0</ele><time>2026-04-25T06:49:21.005Z</time></trkpt><trkpt lat="43.01767820819454" lon="10.853615267309886"><ele>157.0</ele><time>2026-04-25T06:49:22.005Z</time></trkpt><trkpt lat="43.0175695696711" lon="10.853527541304688"><ele>157.0</ele><time>2026-04-25T06:49:23.005Z</time></trkpt><trkpt lat="43.01746243136815" lon="10.853456410464043"><ele>157.0</ele><time>2026-04-25T06:49:24.005Z</time></trkpt><trkpt lat="43.017357879570405" lon="10.853393348337836"><ele>156.5</ele><time>2026-04-25T06:49:25.005Z</time></trkpt><trkpt lat="43.017243517828334" lon="10.853327026637597"><ele>156.0</ele><time>2026-04-25T06:49:26.005Z</time></trkpt><trkpt lat="43.01712039543046" lon="10.853256918363579"><ele>155.5</ele><time>2026-04-25T06:49:27.005Z</time></trkpt><trkpt lat="43.016994730532595" lon="10.853179944496963"><ele>155.0</ele><time>2026-04-25T06:49:28.005Z</time></trkpt><trkpt lat="43.01686349822316" lon="10.853100438792708"><ele>155.0</ele><time>2026-04-25T06:49:29.005Z</time></trkpt><trkpt lat="43.01672758071469" lon="10.85302058950845"><ele>155.0</ele><time>2026-04-25T06:49:30.005Z</time></trkpt><trkpt lat="43.01658710948738" lon="10.852936685734432"><ele>155.0</ele><time>2026-04-25T06:49:31.005Z</time></trkpt><trkpt lat="43.0164451056639" lon="10.852847461844865"><ele>155.0</ele><time>2026-04-25T06:49:32.005Z</time></trkpt><trkpt lat="43.01629774899479" lon="10.852757442093605"><ele>155.0</ele><time>2026-04-25T06:49:33.005Z</time></trkpt><trkpt lat="43.016152802735895" lon="10.85267087947265"><ele>155.0</ele><time>2026-04-25T06:49:34.005Z</time></trkpt><trkpt lat="43.01600702492318" lon="10.852585867326829"><ele>155.0</ele><time>2026-04-25T06:49:35.005Z</time></trkpt><trkpt lat="43.01586897277147" lon="10.852492229724056"><ele>155.0</ele><time>2026-04-25T06:49:36.005Z</time></trkpt><trkpt lat="43.01571881205571" lon="10.852399883870543"><ele>155.0</ele><time>2026-04-25T06:49:37.005Z</time></trkpt><trkpt lat="43.0155670537297" lon="10.852307427060035"><ele>156.33333333333331</ele><time>2026-04-25T06:49:38.005Z</time></trkpt><trkpt lat="43.015419739962184" lon="10.852219600247459"><ele>157.66666666666666</ele><time>2026-04-25T06:49:39.005Z</time></trkpt><trkpt lat="43.01526656334328" lon="10.85212430210843"><ele>159.0</ele><time>2026-04-25T06:49:40.005Z</time></trkpt><trkpt lat="43.015111280512855" lon="10.8520348307433"><ele>158.66666666666666</ele><time>2026-04-25T06:49:41.005Z</time></trkpt><trkpt lat="43.014958907440246" lon="10.851949642047495"><ele>158.33333333333331</ele><time>2026-04-25T06:49:42.005Z</time></trkpt><trkpt lat="43.014810190840194" lon="10.85185047346887"><ele>158.0</ele><time>2026-04-25T06:49:43.005Z</time></trkpt><trkpt lat="43.014661344703306" lon="10.85176094493534"><ele>158.0</ele><time>2026-04-25T06:49:44.005Z</time></trkpt><trkpt lat="43.014519053169415" lon="10.851674078569582"><ele>158.0</ele><time>2026-04-25T06:49:45.005Z</time></trkpt><trkpt lat="43.01439064554306" lon="10.851589750407744"><ele>158.0</ele><time>2026-04-25T06:49:46.005Z</time></trkpt><trkpt lat="43.01426201221935" lon="10.851520438598953"><ele>158.0</ele><time>2026-04-25T06:49:47.005Z</time></trkpt><trkpt lat="43.014137389962016" lon="10.85141819352073"><ele>157.66666666666666</ele><time>2026-04-25T06:49:48.005Z</time></trkpt><trkpt lat="43.014001739339825" lon="10.851333326600482"><ele>157.33333333333334</ele><time>2026-04-25T06:49:49.005Z</time></trkpt><trkpt lat="43.01386314012989" lon="10.85124661497613"><ele>157.0</ele><time>2026-04-25T06:49:50.005Z</time></trkpt><trkpt lat="43.01372008259517" lon="10.851157114091425"><ele>157.0</ele><time>2026-04-25T06:49:51.005Z</time></trkpt><trkpt lat="43.013577020320525" lon="10.851068835271462"><ele>157.0</ele><time>2026-04-25T06:49:52.005Z</time></trkpt><trkpt lat="43.01342844414853" lon="10.850978254730336"><ele>157.0</ele><time>2026-04-25T06:49:53.005Z</time></trkpt><trkpt lat="43.01328153528301" lon="10.850888689067416"><ele>155.66666666666669</ele><time>2026-04-25T06:49:54.005Z</time></trkpt><trkpt lat="43.01313362049859" lon="10.85079777822966"><ele>154.33333333333334</ele><time>2026-04-25T06:49:55.005Z</time></trkpt><trkpt lat="43.0129814011683" lon="10.85070390685282"><ele>153.0</ele><time>2026-04-25T06:49:56.005Z</time></trkpt><trkpt lat="43.012830468383406" lon="10.850610828891359"><ele>153.0</ele><time>2026-04-25T06:49:57.005Z</time></trkpt><trkpt lat="43.01267664534117" lon="10.850515998716125"><ele>153.0</ele><time>2026-04-25T06:49:58.005Z</time></trkpt><trkpt lat="43.012520847485355" lon="10.85042034368055"><ele>153.0</ele><time>2026-04-25T06:49:59.005Z</time></trkpt><trkpt lat="43.01236278738731" lon="10.850323547773701"><ele>152.0</ele><time>2026-04-25T06:50:00.005Z</time></trkpt><trkpt lat="43.012202467816245" lon="10.850225945451188"><ele>151.0</ele><time>2026-04-25T06:50:01.005Z</time></trkpt><trkpt lat="43.012042076021515" lon="10.85012829916739"><ele>150.0</ele><time>2026-04-25T06:50:02.005Z</time></trkpt><trkpt lat="43.0118826238143" lon="10.850031224893451"><ele>150.0</ele><time>2026-04-25T06:50:03.005Z</time></trkpt><trkpt lat="43.01173060816491" lon="10.849938677994597"><ele>150.0</ele><time>2026-04-25T06:50:04.005Z</time></trkpt><trkpt lat="43.011584531436036" lon="10.849872601663112"><ele>150.0</ele><time>2026-04-25T06:50:05.005Z</time></trkpt><trkpt lat="43.011458613148726" lon="10.849795782301388"><ele>150.0</ele><time>2026-04-25T06:50:06.005Z</time></trkpt><trkpt lat="43.01134676259504" lon="10.849702841576029"><ele>150.0</ele><time>2026-04-25T06:50:07.005Z</time></trkpt><trkpt lat="43.01123317432521" lon="10.849643698910285"><ele>150.0</ele><time>2026-04-25T06:50:08.005Z</time></trkpt><trkpt lat="43.01113204728953" lon="10.84957197934755"><ele>150.0</ele><time>2026-04-25T06:50:09.005Z</time></trkpt><trkpt lat="43.01104465051759" lon="10.849506849357574"><ele>150.0</ele><time>2026-04-25T06:50:10.005Z</time></trkpt><trkpt lat="43.01096787217535" lon="10.84945982025425"><ele>150.0</ele><time>2026-04-25T06:50:11.005Z</time></trkpt><trkpt lat="43.010899049732096" lon="10.849423348733596"><ele>150.0</ele><time>2026-04-25T06:50:12.005Z</time></trkpt><trkpt lat="43.010835890679274" lon="10.849396610510865"><ele>150.0</ele><time>2026-04-25T06:50:13.005Z</time></trkpt><trkpt lat="43.01074866917651" lon="10.849361457616439"><ele>150.0</ele><time>2026-04-25T06:50:15.005Z</time></trkpt><trkpt lat="43.010647945222686" lon="10.849596360993496"><ele>149.8</ele><time>2026-04-25T06:50:17.005Z</time></trkpt><trkpt lat="43.010613726225934" lon="10.84970084173532"><ele>149.6</ele><time>2026-04-25T06:50:18.005Z</time></trkpt><trkpt lat="43.01057367068756" lon="10.849823595143706"><ele>149.4</ele><time>2026-04-25T06:50:19.005Z</time></trkpt><trkpt lat="43.01053607822958" lon="10.849965666285437"><ele>149.2</ele><time>2026-04-25T06:50:20.005Z</time></trkpt><trkpt lat="43.01050039291601" lon="10.85011844370563"><ele>149.0</ele><time>2026-04-25T06:50:21.005Z</time></trkpt><trkpt lat="43.010455019795685" lon="10.850289772204603"><ele>149.0</ele><time>2026-04-25T06:50:22.005Z</time></trkpt><trkpt lat="43.010408681972045" lon="10.850464331368057"><ele>149.0</ele><time>2026-04-25T06:50:23.005Z</time></trkpt><trkpt lat="43.01035988814274" lon="10.850645481945778"><ele>149.0</ele><time>2026-04-25T06:50:24.005Z</time></trkpt><trkpt lat="43.010302144579114" lon="10.850825241745117"><ele>149.0</ele><time>2026-04-25T06:50:25.005Z</time></trkpt><trkpt lat="43.01023491024881" lon="10.851006458526554"><ele>149.0</ele><time>2026-04-25T06:50:26.005Z</time></trkpt><trkpt lat="43.010168068106466" lon="10.851190930417271"><ele>149.0</ele><time>2026-04-25T06:50:27.005Z</time></trkpt><trkpt lat="43.01010229734506" lon="10.851369050267216"><ele>149.0</ele><time>2026-04-25T06:50:28.005Z</time></trkpt><trkpt lat="43.010034740919565" lon="10.851550068939055"><ele>149.0</ele><time>2026-04-25T06:50:29.005Z</time></trkpt><trkpt lat="43.00996625156355" lon="10.851734470666095"><ele>149.33333333333331</ele><time>2026-04-25T06:50:30.005Z</time></trkpt><trkpt lat="43.00989746528476" lon="10.851918272528327"><ele>149.66666666666666</ele><time>2026-04-25T06:50:31.005Z</time></trkpt><trkpt lat="43.00982810833797" lon="10.852106183149454"><ele>150.0</ele><time>2026-04-25T06:50:32.005Z</time></trkpt><trkpt lat="43.00976573255355" lon="10.852302373243283"><ele>150.0</ele><time>2026-04-25T06:50:33.005Z</time></trkpt><trkpt lat="43.009697120606276" lon="10.852494296674866"><ele>150.0</ele><time>2026-04-25T06:50:34.005Z</time></trkpt><trkpt lat="43.00963280868423" lon="10.852689110412712"><ele>150.0</ele><time>2026-04-25T06:50:35.005Z</time></trkpt><trkpt lat="43.00958163931369" lon="10.852865471116143"><ele>150.4</ele><time>2026-04-25T06:50:36.005Z</time></trkpt><trkpt lat="43.00953281288122" lon="10.853023435079335"><ele>150.8</ele><time>2026-04-25T06:50:37.005Z</time></trkpt><trkpt lat="43.00947622674226" lon="10.85315523674146"><ele>151.2</ele><time>2026-04-25T06:50:38.005Z</time></trkpt><trkpt lat="43.009434023669534" lon="10.853277961310125"><ele>151.6</ele><time>2026-04-25T06:50:39.005Z</time></trkpt><trkpt lat="43.009399263576746" lon="10.85337943754284"><ele>152.0</ele><time>2026-04-25T06:50:40.005Z</time></trkpt><trkpt lat="43.0093679953496" lon="10.853470719769259"><ele>152.16666666666666</ele><time>2026-04-25T06:50:41.005Z</time></trkpt><trkpt lat="43.009340902172376" lon="10.85354981371822"><ele>152.33333333333331</ele><time>2026-04-25T06:50:42.005Z</time></trkpt><trkpt lat="43.00929009644928" lon="10.853695041528399"><ele>152.5</ele><time>2026-04-25T06:50:44.005Z</time></trkpt><trkpt lat="43.009253287865356" lon="10.85380002712099"><ele>152.66666666666666</ele><time>2026-04-25T06:50:46.006Z</time></trkpt><trkpt lat="43.00921427843055" lon="10.85388474396345"><ele>152.83333333333334</ele><time>2026-04-25T06:50:49.006Z</time></trkpt><trkpt lat="43.00915109942207" lon="10.85384023150499"><ele>153.0</ele><time>2026-04-25T06:50:50.006Z</time></trkpt><trkpt lat="43.009060401120585" lon="10.853800740958487"><ele>152.25</ele><time>2026-04-25T06:50:51.006Z</time></trkpt><trkpt lat="43.008970022840266" lon="10.853755985887691"><ele>151.5</ele><time>2026-04-25T06:50:52.006Z</time></trkpt><trkpt lat="43.00886022140195" lon="10.853706355440575"><ele>150.75</ele><time>2026-04-25T06:50:53.006Z</time></trkpt><trkpt lat="43.008735381648385" lon="10.853659434620974"><ele>150.0</ele><time>2026-04-25T06:50:54.006Z</time></trkpt><trkpt lat="43.00859885150483" lon="10.853601015016705"><ele>150.0</ele><time>2026-04-25T06:50:55.006Z</time></trkpt><trkpt lat="43.008446062855334" lon="10.853536059731493"><ele>150.0</ele><time>2026-04-25T06:50:56.006Z</time></trkpt><trkpt lat="43.00829115158551" lon="10.853440881663726"><ele>150.0</ele><time>2026-04-25T06:50:57.006Z</time></trkpt><trkpt lat="43.0081275051244" lon="10.8533648858226"><ele>150.0</ele><time>2026-04-25T06:50:58.006Z</time></trkpt><trkpt lat="43.00795760017336" lon="10.853285843896526"><ele>150.0</ele><time>2026-04-25T06:50:59.006Z</time></trkpt><trkpt lat="43.00778066854972" lon="10.853202501683542"><ele>150.0</ele><time>2026-04-25T06:51:00.006Z</time></trkpt><trkpt lat="43.00760658092813" lon="10.853120499128268"><ele>149.66666666666666</ele><time>2026-04-25T06:51:01.006Z</time></trkpt><trkpt lat="43.007444244402954" lon="10.853044031841224"><ele>149.33333333333331</ele><time>2026-04-25T06:51:02.006Z</time></trkpt><trkpt lat="43.00728509992067" lon="10.852969762996418"><ele>149.0</ele><time>2026-04-25T06:51:03.006Z</time></trkpt><trkpt lat="43.007132960393314" lon="10.852899060757807"><ele>149.0</ele><time>2026-04-25T06:51:04.006Z</time></trkpt><trkpt lat="43.00698703328903" lon="10.852831245544017"><ele>149.0</ele><time>2026-04-25T06:51:05.006Z</time></trkpt><trkpt lat="43.00684700427611" lon="10.852766171285115"><ele>149.0</ele><time>2026-04-25T06:51:06.006Z</time></trkpt><trkpt lat="43.006715100675315" lon="10.852711521949477"><ele>149.0</ele><time>2026-04-25T06:51:07.006Z</time></trkpt><trkpt lat="43.00660358749555" lon="10.852654258136939"><ele>148.75</ele><time>2026-04-25T06:51:08.006Z</time></trkpt><trkpt lat="43.00649566785467" lon="10.852587620069212"><ele>148.5</ele><time>2026-04-25T06:51:09.006Z</time></trkpt><trkpt lat="43.00639038449765" lon="10.852501362938044"><ele>148.25</ele><time>2026-04-25T06:51:10.006Z</time></trkpt><trkpt lat="43.006283575239145" lon="10.852405550870428"><ele>148.0</ele><time>2026-04-25T06:51:11.006Z</time></trkpt><trkpt lat="43.00617552054135" lon="10.852302380036623"><ele>148.0</ele><time>2026-04-25T06:51:12.006Z</time></trkpt><trkpt lat="43.00606258385932" lon="10.852196024049467"><ele>148.0</ele><time>2026-04-25T06:51:13.006Z</time></trkpt><trkpt lat="43.00594745126146" lon="10.852083349196263"><ele>148.0</ele><time>2026-04-25T06:51:14.006Z</time></trkpt><trkpt lat="43.00582996650872" lon="10.851969742842703"><ele>148.0</ele><time>2026-04-25T06:51:15.006Z</time></trkpt><trkpt lat="43.005708763238864" lon="10.851852095665924"><ele>147.75</ele><time>2026-04-25T06:51:16.006Z</time></trkpt><trkpt lat="43.00558641440196" lon="10.85173868624961"><ele>147.5</ele><time>2026-04-25T06:51:17.006Z</time></trkpt><trkpt lat="43.005474466899706" lon="10.851628368551204"><ele>147.25</ele><time>2026-04-25T06:51:18.006Z</time></trkpt><trkpt lat="43.005370587139964" lon="10.851532714679141"><ele>147.0</ele><time>2026-04-25T06:51:19.006Z</time></trkpt><trkpt lat="43.00528299883789" lon="10.851437501420028"><ele>147.0</ele><time>2026-04-25T06:51:20.006Z</time></trkpt><trkpt lat="43.00521572144626" lon="10.85132646444907"><ele>147.0</ele><time>2026-04-25T06:51:21.006Z</time></trkpt><trkpt lat="43.00514477505755" lon="10.851245782152361"><ele>147.0</ele><time>2026-04-25T06:51:22.006Z</time></trkpt><trkpt lat="43.00505409577653" lon="10.85121160844798"><ele>147.0</ele><time>2026-04-25T06:51:23.006Z</time></trkpt><trkpt lat="43.00497248027458" lon="10.851155625837414"><ele>147.0</ele><time>2026-04-25T06:51:24.006Z</time></trkpt><trkpt lat="43.00491670286343" lon="10.85108776719068"><ele>147.0</ele><time>2026-04-25T06:51:25.006Z</time></trkpt><trkpt lat="43.00486436009745" lon="10.851036020985228"><ele>147.0</ele><time>2026-04-25T06:51:26.006Z</time></trkpt><trkpt lat="43.00481247531689" lon="10.8509798451024"><ele>147.0</ele><time>2026-04-25T06:51:28.006Z</time></trkpt><trkpt lat="43.00463142487547" lon="10.851132112418721"><ele>147.0</ele><time>2026-04-25T06:51:29.006Z</time></trkpt><trkpt lat="43.00457163937281" lon="10.851240541640598"><ele>147.0</ele><time>2026-04-25T06:51:30.006Z</time></trkpt><trkpt lat="43.00452085090392" lon="10.851304314024334"><ele>147.0</ele><time>2026-04-25T06:51:31.006Z</time></trkpt><trkpt lat="43.00435450728459" lon="10.851272940084126"><ele>147.0</ele><time>2026-04-25T06:51:33.006Z</time></trkpt><trkpt lat="43.00426165661565" lon="10.851225261214333"><ele>147.0</ele><time>2026-04-25T06:51:34.006Z</time></trkpt><trkpt lat="43.00416201651857" lon="10.8511413244381"><ele>147.0</ele><time>2026-04-25T06:51:35.006Z</time></trkpt><trkpt lat="43.004050090697845" lon="10.851058315866693"><ele>146.4</ele><time>2026-04-25T06:51:36.006Z</time></trkpt><trkpt lat="43.00395842812141" lon="10.850950211870055"><ele>145.79999999999998</ele><time>2026-04-25T06:51:37.006Z</time></trkpt><trkpt lat="43.00387395074444" lon="10.850863353797411"><ele>145.2</ele><time>2026-04-25T06:51:38.006Z</time></trkpt><trkpt lat="43.003796276139994" lon="10.850779763642132"><ele>144.6</ele><time>2026-04-25T06:51:39.006Z</time></trkpt><trkpt lat="43.003731593714626" lon="10.850709509501522"><ele>144.0</ele><time>2026-04-25T06:51:40.006Z</time></trkpt><trkpt lat="43.00366916021005" lon="10.850671524094958"><ele>144.0</ele><time>2026-04-25T06:51:41.006Z</time></trkpt><trkpt lat="43.003581727934" lon="10.850685949919622"><ele>144.0</ele><time>2026-04-25T06:51:42.006Z</time></trkpt><trkpt lat="43.00348368658456" lon="10.850715658897066"><ele>144.0</ele><time>2026-04-25T06:51:43.006Z</time></trkpt><trkpt lat="43.003369384082326" lon="10.850783021724602"><ele>144.0</ele><time>2026-04-25T06:51:44.006Z</time></trkpt><trkpt lat="43.00324583487279" lon="10.850863453948318"><ele>144.0</ele><time>2026-04-25T06:51:45.006Z</time></trkpt><trkpt lat="43.003114814565805" lon="10.850949499198943"><ele>144.0</ele><time>2026-04-25T06:51:46.006Z</time></trkpt><trkpt lat="43.00296913125088" lon="10.851028086824817"><ele>144.0</ele><time>2026-04-25T06:51:47.006Z</time></trkpt><trkpt lat="43.00281491244661" lon="10.851108672342306"><ele>144.0</ele><time>2026-04-25T06:51:48.006Z</time></trkpt><trkpt lat="43.002664393145835" lon="10.851195815077993"><ele>144.0</ele><time>2026-04-25T06:51:49.006Z</time></trkpt><trkpt lat="43.00251267899429" lon="10.851284977103465"><ele>144.0</ele><time>2026-04-25T06:51:50.006Z</time></trkpt><trkpt lat="43.00237773888948" lon="10.851389035055917"><ele>143.5</ele><time>2026-04-25T06:51:51.006Z</time></trkpt><trkpt lat="43.00223696001843" lon="10.851464021909132"><ele>143.0</ele><time>2026-04-25T06:51:52.006Z</time></trkpt><trkpt lat="43.00209702935793" lon="10.851547097048247"><ele>142.5</ele><time>2026-04-25T06:51:53.006Z</time></trkpt><trkpt lat="43.00197260916439" lon="10.851620009709174"><ele>142.0</ele><time>2026-04-25T06:51:54.006Z</time></trkpt><trkpt lat="43.001862986194865" lon="10.851682682901597"><ele>142.0</ele><time>2026-04-25T06:51:55.006Z</time></trkpt><trkpt lat="43.00175825074056" lon="10.85173143783221"><ele>142.0</ele><time>2026-04-25T06:51:56.006Z</time></trkpt><trkpt lat="43.00166159109638" lon="10.851755172763273"><ele>142.0</ele><time>2026-04-25T06:51:57.006Z</time></trkpt><trkpt lat="43.00157058278559" lon="10.85175116766847"><ele>142.0</ele><time>2026-04-25T06:51:58.006Z</time></trkpt><trkpt lat="43.001489994977575" lon="10.8516923042622"><ele>142.0</ele><time>2026-04-25T06:51:59.006Z</time></trkpt><trkpt lat="43.001418999879604" lon="10.851629509828689"><ele>141.6</ele><time>2026-04-25T06:52:00.006Z</time></trkpt><trkpt lat="43.00133992206102" lon="10.851560286509809"><ele>141.2</ele><time>2026-04-25T06:52:01.006Z</time></trkpt><trkpt lat="43.001270832301465" lon="10.85148473536213"><ele>140.8</ele><time>2026-04-25T06:52:02.006Z</time></trkpt><trkpt lat="43.00119290037182" lon="10.851402750890848"><ele>140.4</ele><time>2026-04-25T06:52:03.006Z</time></trkpt><trkpt lat="43.001143485897565" lon="10.851290741875985"><ele>140.0</ele><time>2026-04-25T06:52:04.006Z</time></trkpt><trkpt lat="43.00107947148229" lon="10.85117745216059"><ele>140.0</ele><time>2026-04-25T06:52:05.006Z</time></trkpt><trkpt lat="43.00100661772731" lon="10.851076155856187"><ele>140.0</ele><time>2026-04-25T06:52:06.006Z</time></trkpt><trkpt lat="43.000931363105835" lon="10.85097622805867"><ele>140.0</ele><time>2026-04-25T06:52:07.006Z</time></trkpt><trkpt lat="43.0008595686861" lon="10.850874811298562"><ele>140.0</ele><time>2026-04-25T06:52:08.006Z</time></trkpt><trkpt lat="43.00079884233077" lon="10.85077406666224"><ele>140.0</ele><time>2026-04-25T06:52:09.006Z</time></trkpt><trkpt lat="43.00074341845183" lon="10.850677247882487"><ele>139.5</ele><time>2026-04-25T06:52:10.006Z</time></trkpt><trkpt lat="43.00069410567676" lon="10.850577063355464"><ele>139.0</ele><time>2026-04-25T06:52:11.006Z</time></trkpt><trkpt lat="43.0006453724848" lon="10.850492827520512"><ele>138.5</ele><time>2026-04-25T06:52:12.006Z</time></trkpt><trkpt lat="43.00058788726572" lon="10.850432884482206"><ele>138.0</ele><time>2026-04-25T06:52:13.006Z</time></trkpt><trkpt lat="43.000509922099695" lon="10.8504106893957"><ele>137.5</ele><time>2026-04-25T06:52:14.006Z</time></trkpt><trkpt lat="43.00042641708441" lon="10.850436495120434"><ele>137.0</ele><time>2026-04-25T06:52:15.006Z</time></trkpt><trkpt lat="43.00036262819999" lon="10.85047065373897"><ele>137.0</ele><time>2026-04-25T06:52:16.006Z</time></trkpt><trkpt lat="43.000293017042665" lon="10.850523836005694"><ele>137.0</ele><time>2026-04-25T06:52:17.006Z</time></trkpt><trkpt lat="43.00019572061895" lon="10.850571085638563"><ele>137.0</ele><time>2026-04-25T06:52:18.006Z</time></trkpt><trkpt lat="43.000101245290125" lon="10.850637853437128"><ele>137.0</ele><time>2026-04-25T06:52:19.006Z</time></trkpt><trkpt lat="43.00002730318763" lon="10.850711483345748"><ele>137.0</ele><time>2026-04-25T06:52:20.006Z</time></trkpt><trkpt lat="42.999943359296054" lon="10.850718631745528"><ele>137.0</ele><time>2026-04-25T06:52:21.006Z</time></trkpt><trkpt lat="42.99984947949172" lon="10.850722619671421"><ele>137.0</ele><time>2026-04-25T06:52:22.006Z</time></trkpt><trkpt lat="42.999747712116374" lon="10.850711069982907"><ele>137.0</ele><time>2026-04-25T06:52:23.006Z</time></trkpt><trkpt lat="42.99964651376972" lon="10.850689230172573"><ele>137.0</ele><time>2026-04-25T06:52:24.006Z</time></trkpt><trkpt lat="42.999537141079735" lon="10.850672431071924"><ele>137.0</ele><time>2026-04-25T06:52:25.006Z</time></trkpt><trkpt lat="42.99943408322301" lon="10.850668116236074"><ele>137.0</ele><time>2026-04-25T06:52:26.006Z</time></trkpt><trkpt lat="42.99933449914315" lon="10.850637162106475"><ele>137.0</ele><time>2026-04-25T06:52:27.006Z</time></trkpt><trkpt lat="42.99922743300559" lon="10.850635312735891"><ele>137.0</ele><time>2026-04-25T06:52:28.006Z</time></trkpt><trkpt lat="42.99911633191799" lon="10.85064748808512"><ele>137.0</ele><time>2026-04-25T06:52:29.006Z</time></trkpt><trkpt lat="42.999002577882486" lon="10.8506694601565"><ele>137.0</ele><time>2026-04-25T06:52:30.006Z</time></trkpt><trkpt lat="42.99888421661741" lon="10.850678541164"><ele>137.2</ele><time>2026-04-25T06:52:31.006Z</time></trkpt><trkpt lat="42.99877373048764" lon="10.850730747830665"><ele>137.39999999999998</ele><time>2026-04-25T06:52:32.006Z</time></trkpt><trkpt lat="42.99867439081781" lon="10.850792362163913"><ele>137.60000000000002</ele><time>2026-04-25T06:52:33.006Z</time></trkpt><trkpt lat="42.99858590483794" lon="10.850848535547746"><ele>137.8</ele><time>2026-04-25T06:52:34.006Z</time></trkpt><trkpt lat="42.99850103097478" lon="10.850903380417323"><ele>138.0</ele><time>2026-04-25T06:52:35.006Z</time></trkpt><trkpt lat="42.99841958489462" lon="10.850945316655796"><ele>138.66666666666666</ele><time>2026-04-25T06:52:36.006Z</time></trkpt><trkpt lat="42.99832789971542" lon="10.850973316169817"><ele>139.33333333333334</ele><time>2026-04-25T06:52:37.006Z</time></trkpt><trkpt lat="42.99823491100324" lon="10.850990771779873"><ele>140.0</ele><time>2026-04-25T06:52:38.006Z</time></trkpt><trkpt lat="42.99814967172841" lon="10.850997891292483"><ele>140.66666666666669</ele><time>2026-04-25T06:52:39.006Z</time></trkpt><trkpt lat="42.99807207087982" lon="10.851007759024572"><ele>141.33333333333334</ele><time>2026-04-25T06:52:40.006Z</time></trkpt><trkpt lat="42.99800786601244" lon="10.851016477596882"><ele>142.0</ele><time>2026-04-25T06:52:41.006Z</time></trkpt><trkpt lat="42.99792967004069" lon="10.851023274274105"><ele>141.25</ele><time>2026-04-25T06:52:43.006Z</time></trkpt><trkpt lat="42.997960946887204" lon="10.85074637252772"><ele>140.5</ele><time>2026-04-25T06:52:48.006Z</time></trkpt><trkpt lat="42.99804744232165" lon="10.850613274966875"><ele>139.75</ele><time>2026-04-25T06:52:50.006Z</time></trkpt><trkpt lat="42.99808603747321" lon="10.850518501927008"><ele>139.0</ele><time>2026-04-25T06:52:51.006Z</time></trkpt><trkpt lat="42.99812049285126" lon="10.850427189218854"><ele>139.0</ele><time>2026-04-25T06:52:52.006Z</time></trkpt><trkpt lat="42.99814425331618" lon="10.850339237456485"><ele>139.0</ele><time>2026-04-25T06:52:53.006Z</time></trkpt><trkpt lat="42.998153785106695" lon="10.850236136786647"><ele>139.0</ele><time>2026-04-25T06:52:54.006Z</time></trkpt><trkpt lat="42.99815103381518" lon="10.85013955872238"><ele>139.0</ele><time>2026-04-25T06:52:55.006Z</time></trkpt><trkpt lat="42.99813270260034" lon="10.850048038011602"><ele>139.0</ele><time>2026-04-25T06:52:56.006Z</time></trkpt><trkpt lat="42.99809770201065" lon="10.849967939030941"><ele>139.0</ele><time>2026-04-25T06:52:57.006Z</time></trkpt><trkpt lat="42.99804361388669" lon="10.84990256767145"><ele>139.0</ele><time>2026-04-25T06:52:58.006Z</time></trkpt><trkpt lat="42.99797829386859" lon="10.849844217165474"><ele>138.16666666666669</ele><time>2026-04-25T06:52:59.006Z</time></trkpt><trkpt lat="42.99792159156166" lon="10.849765652834918"><ele>137.33333333333334</ele><time>2026-04-25T06:53:00.006Z</time></trkpt><trkpt lat="42.997884992464556" lon="10.849678677538583"><ele>136.5</ele><time>2026-04-25T06:53:01.006Z</time></trkpt><trkpt lat="42.99785624633487" lon="10.849595132052404"><ele>135.66666666666666</ele><time>2026-04-25T06:53:02.006Z</time></trkpt><trkpt lat="42.99779766552926" lon="10.849477542078054"><ele>134.83333333333331</ele><time>2026-04-25T06:53:04.006Z</time></trkpt><trkpt lat="42.99769478507634" lon="10.849394169768512"><ele>134.0</ele><time>2026-04-25T06:53:06.006Z</time></trkpt><trkpt lat="42.997629789975015" lon="10.849294132154114"><ele>133.66666666666666</ele><time>2026-04-25T06:53:08.006Z</time></trkpt><trkpt lat="42.99759100953851" lon="10.849192821327685"><ele>133.33333333333331</ele><time>2026-04-25T06:53:10.006Z</time></trkpt><trkpt lat="42.99763025986738" lon="10.849087223440621"><ele>133.0</ele><time>2026-04-25T06:53:12.006Z</time></trkpt><trkpt lat="42.99770304595717" lon="10.848976805021616"><ele>132.66666666666666</ele><time>2026-04-25T06:53:14.006Z</time></trkpt><trkpt lat="42.99775489437887" lon="10.848909824679842"><ele>132.33333333333334</ele><time>2026-04-25T06:53:15.006Z</time></trkpt><trkpt lat="42.99778642990055" lon="10.848831386612842"><ele>132.0</ele><time>2026-04-25T06:53:16.006Z</time></trkpt><trkpt lat="42.9978097125713" lon="10.848720076036653"><ele>132.0</ele><time>2026-04-25T06:53:17.006Z</time></trkpt><trkpt lat="42.99781103463392" lon="10.848614698788957"><ele>132.0</ele><time>2026-04-25T06:53:18.006Z</time></trkpt><trkpt lat="42.997779692487626" lon="10.848538690682286"><ele>132.0</ele><time>2026-04-25T06:53:19.006Z</time></trkpt><trkpt lat="42.99774322544371" lon="10.848451099479405"><ele>132.0</ele><time>2026-04-25T06:53:20.006Z</time></trkpt><trkpt lat="42.997728101204146" lon="10.84827548634688"><ele>132.0</ele><time>2026-04-25T06:53:22.006Z</time></trkpt><trkpt lat="42.997717714226816" lon="10.848173968483957"><ele>132.0</ele><time>2026-04-25T06:53:23.006Z</time></trkpt><trkpt lat="42.9976992264622" lon="10.848091325313296"><ele>131.2</ele><time>2026-04-25T06:53:24.006Z</time></trkpt><trkpt lat="42.99764783544398" lon="10.847951113008625"><ele>130.39999999999998</ele><time>2026-04-25T06:53:26.006Z</time></trkpt><trkpt lat="42.997590179942755" lon="10.84782148951321"><ele>129.60000000000002</ele><time>2026-04-25T06:53:28.006Z</time></trkpt><trkpt lat="42.99760510148843" lon="10.847670186669975"><ele>128.8</ele><time>2026-04-25T06:53:30.007Z</time></trkpt><trkpt lat="42.99765016750482" lon="10.847551594193686"><ele>128.0</ele><time>2026-04-25T06:53:32.007Z</time></trkpt><trkpt lat="42.99757318711587" lon="10.847474408351315"><ele>127.66666666666666</ele><time>2026-04-25T06:53:35.007Z</time></trkpt><trkpt lat="42.99749481111117" lon="10.847443409210744"><ele>127.33333333333333</ele><time>2026-04-25T06:53:37.007Z</time></trkpt><trkpt lat="42.99741214493859" lon="10.847400637597126"><ele>127.0</ele><time>2026-04-25T06:53:39.007Z</time></trkpt><trkpt lat="42.99734657945949" lon="10.84735883296985"><ele>126.66666666666666</ele><time>2026-04-25T06:53:41.007Z</time></trkpt><trkpt lat="42.99728285225733" lon="10.847309578721736"><ele>126.33333333333333</ele><time>2026-04-25T06:53:43.007Z</time></trkpt><trkpt lat="42.99723283428616" lon="10.847243559271"><ele>126.0</ele><time>2026-04-25T06:53:45.007Z</time></trkpt><trkpt lat="42.99717135687294" lon="10.847168271660761"><ele>126.0</ele><time>2026-04-25T06:53:47.007Z</time></trkpt><trkpt lat="42.99711367498077" lon="10.847063430861578"><ele>126.0</ele><time>2026-04-25T06:53:49.007Z</time></trkpt><trkpt lat="42.9970514719253" lon="10.846961089384354"><ele>126.0</ele><time>2026-04-25T06:53:51.007Z</time></trkpt><trkpt lat="42.996976374230584" lon="10.846879050648429"><ele>126.0</ele><time>2026-04-25T06:53:53.007Z</time></trkpt><trkpt lat="42.99688802691028" lon="10.846816991841989"><ele>126.0</ele><time>2026-04-25T06:53:55.007Z</time></trkpt><trkpt lat="42.99682886106283" lon="10.846757585865907"><ele>126.16666666666667</ele><time>2026-04-25T06:53:56.007Z</time></trkpt><trkpt lat="42.99673013184543" lon="10.846683203297035"><ele>126.33333333333334</ele><time>2026-04-25T06:53:58.007Z</time></trkpt><trkpt lat="42.99667025177503" lon="10.846644613865474"><ele>126.5</ele><time>2026-04-25T06:54:00.007Z</time></trkpt><trkpt lat="42.99661895412248" lon="10.846709176611377"><ele>126.66666666666667</ele><time>2026-04-25T06:54:03.007Z</time></trkpt><trkpt lat="42.996544851186115" lon="10.846686689418545"><ele>126.83333333333334</ele><time>2026-04-25T06:54:09.007Z</time></trkpt><trkpt lat="42.99647204096385" lon="10.84667763896101"><ele>127.0</ele><time>2026-04-25T06:54:13.007Z</time></trkpt><trkpt lat="42.996393878367584" lon="10.846726862959219"><ele>127.00000000000001</ele><time>2026-04-25T06:54:16.007Z</time></trkpt><trkpt lat="42.99627146166973" lon="10.846725701850575"><ele>127.0</ele><time>2026-04-25T06:54:18.007Z</time></trkpt><trkpt lat="42.996197734909266" lon="10.846722640369254"><ele>127.0</ele><time>2026-04-25T06:54:19.007Z</time></trkpt><trkpt lat="42.996133307627936" lon="10.846719349746188"><ele>127.0</ele><time>2026-04-25T06:54:20.007Z</time></trkpt><trkpt lat="42.996024690421045" lon="10.846765664184682"><ele>127.00000000000001</ele><time>2026-04-25T06:54:22.007Z</time></trkpt><trkpt lat="42.99595964674896" lon="10.846793740921983"><ele>127.0</ele><time>2026-04-25T06:54:23.007Z</time></trkpt><trkpt lat="42.99589676505373" lon="10.846811752895999"><ele>127.8</ele><time>2026-04-25T06:54:24.007Z</time></trkpt><trkpt lat="42.99576887950246" lon="10.846838121549705"><ele>128.6</ele><time>2026-04-25T06:54:26.007Z</time></trkpt><trkpt lat="42.9956953650877" lon="10.846845831786625"><ele>129.39999999999998</ele><time>2026-04-25T06:54:27.007Z</time></trkpt><trkpt lat="42.99562709327809" lon="10.846864150745414"><ele>130.2</ele><time>2026-04-25T06:54:28.007Z</time></trkpt><trkpt lat="42.995501525565686" lon="10.846858447750526"><ele>131.0</ele><time>2026-04-25T06:54:30.007Z</time></trkpt><trkpt lat="42.99543697011239" lon="10.846810514120119"><ele>129.42857142857144</ele><time>2026-04-25T06:54:31.007Z</time></trkpt><trkpt lat="42.99537430138673" lon="10.846758001406666"><ele>127.85714285714286</ele><time>2026-04-25T06:54:32.007Z</time></trkpt><trkpt lat="42.99531611045097" lon="10.846686851643296"><ele>126.28571428571429</ele><time>2026-04-25T06:54:33.007Z</time></trkpt><trkpt lat="42.995269504785774" lon="10.846606543831047"><ele>124.71428571428572</ele><time>2026-04-25T06:54:34.007Z</time></trkpt><trkpt lat="42.995223177894964" lon="10.846526933925546"><ele>123.14285714285714</ele><time>2026-04-25T06:54:35.007Z</time></trkpt><trkpt lat="42.99518173060637" lon="10.84645034238205"><ele>121.57142857142858</ele><time>2026-04-25T06:54:36.007Z</time></trkpt><trkpt lat="42.995140858462285" lon="10.84637044578951"><ele>120.0</ele><time>2026-04-25T06:54:37.007Z</time></trkpt><trkpt lat="42.99507030151227" lon="10.846231366586418"><ele>120.0</ele><time>2026-04-25T06:54:39.007Z</time></trkpt><trkpt lat="42.99503581068898" lon="10.846151942830456"><ele>120.0</ele><time>2026-04-25T06:54:40.007Z</time></trkpt><trkpt lat="42.99500492972757" lon="10.846072067608201"><ele>120.0</ele><time>2026-04-25T06:54:41.007Z</time></trkpt><trkpt lat="42.99497770616959" lon="10.845880455646435"><ele>120.0</ele><time>2026-04-25T06:54:43.007Z</time></trkpt><trkpt lat="42.994980327662624" lon="10.845784590395636"><ele>120.0</ele><time>2026-04-25T06:54:44.007Z</time></trkpt><trkpt lat="42.99497666211303" lon="10.845696643410774"><ele>120.0</ele><time>2026-04-25T06:54:45.007Z</time></trkpt><trkpt lat="42.99498198073461" lon="10.845559741123346"><ele>116.4</ele><time>2026-04-25T06:54:47.007Z</time></trkpt><trkpt lat="42.99493158905713" lon="10.845407534783803"><ele>112.8</ele><time>2026-04-25T06:54:49.007Z</time></trkpt><trkpt lat="42.99489438264266" lon="10.845326982503131"><ele>109.19999999999999</ele><time>2026-04-25T06:54:50.007Z</time></trkpt><trkpt lat="42.994829566018126" lon="10.845206358097023"><ele>105.6</ele><time>2026-04-25T06:54:52.007Z</time></trkpt><trkpt lat="42.99478273054936" lon="10.845087996905697"><ele>102.0</ele><time>2026-04-25T06:54:54.007Z</time></trkpt><trkpt lat="42.9947806180775" lon="10.844955050729578"><ele>101.0</ele><time>2026-04-25T06:54:56.007Z</time></trkpt><trkpt lat="42.99468963925449" lon="10.844847790546194"><ele>100.0</ele><time>2026-04-25T06:54:58.007Z</time></trkpt><trkpt lat="42.99461705541971" lon="10.844800248736881"><ele>99.0</ele><time>2026-04-25T06:54:59.007Z</time></trkpt><trkpt lat="42.99454553495932" lon="10.844659422094924"><ele>98.0</ele><time>2026-04-25T06:55:01.007Z</time></trkpt><trkpt lat="42.99450237963513" lon="10.844593986909583"><ele>97.0</ele><time>2026-04-25T06:55:03.007Z</time></trkpt><trkpt lat="42.994394987456104" lon="10.844597411050737"><ele>97.0</ele><time>2026-04-25T06:55:05.007Z</time></trkpt><trkpt lat="42.994308114517374" lon="10.844611902663164"><ele>97.0</ele><time>2026-04-25T06:55:06.007Z</time></trkpt><trkpt lat="42.9942147423586" lon="10.84462126909046"><ele>97.0</ele><time>2026-04-25T06:55:07.007Z</time></trkpt><trkpt lat="42.99411860357376" lon="10.84461740585884"><ele>97.0</ele><time>2026-04-25T06:55:08.007Z</time></trkpt><trkpt lat="42.99400852650832" lon="10.844610203940835"><ele>97.0</ele><time>2026-04-25T06:55:09.007Z</time></trkpt><trkpt lat="42.99389337839273" lon="10.844596160910024"><ele>95.6</ele><time>2026-04-25T06:55:10.007Z</time></trkpt><trkpt lat="42.99378152588981" lon="10.84457239420746"><ele>94.19999999999999</ele><time>2026-04-25T06:55:11.007Z</time></trkpt><trkpt lat="42.99367088024791" lon="10.844545325651168"><ele>92.8</ele><time>2026-04-25T06:55:12.007Z</time></trkpt><trkpt lat="42.993565891197726" lon="10.844516642436917"><ele>91.4</ele><time>2026-04-25T06:55:13.007Z</time></trkpt><trkpt lat="42.993464345027455" lon="10.844482838375646"><ele>90.0</ele><time>2026-04-25T06:55:14.007Z</time></trkpt><trkpt lat="42.9933679165037" lon="10.844461055288258"><ele>89.6</ele><time>2026-04-25T06:55:15.007Z</time></trkpt><trkpt lat="42.993274536369206" lon="10.844452557830635"><ele>89.2</ele><time>2026-04-25T06:55:16.007Z</time></trkpt><trkpt lat="42.993180080083405" lon="10.844446304402382"><ele>88.80000000000001</ele><time>2026-04-25T06:55:17.007Z</time></trkpt><trkpt lat="42.99309655688173" lon="10.844423527766969"><ele>88.4</ele><time>2026-04-25T06:55:18.007Z</time></trkpt><trkpt lat="42.99300398313749" lon="10.844376660026716"><ele>88.0</ele><time>2026-04-25T06:55:19.007Z</time></trkpt><trkpt lat="42.99291284452597" lon="10.844306539570749"><ele>87.60000000000001</ele><time>2026-04-25T06:55:20.007Z</time></trkpt><trkpt lat="42.99281436236064" lon="10.844220858892726"><ele>87.2</ele><time>2026-04-25T06:55:21.007Z</time></trkpt><trkpt lat="42.99272878937977" lon="10.844131379800473"><ele>86.8</ele><time>2026-04-25T06:55:22.007Z</time></trkpt><trkpt lat="42.99264578572763" lon="10.844063117892215"><ele>86.4</ele><time>2026-04-25T06:55:23.007Z</time></trkpt><trkpt lat="42.992564870225124" lon="10.843993633152051"><ele>86.0</ele><time>2026-04-25T06:55:24.007Z</time></trkpt><trkpt lat="42.992476702093846" lon="10.84392601396664"><ele>85.8</ele><time>2026-04-25T06:55:25.007Z</time></trkpt><trkpt lat="42.9923936875406" lon="10.843830226459643"><ele>85.6</ele><time>2026-04-25T06:55:26.007Z</time></trkpt><trkpt lat="42.992314340289774" lon="10.84375130127997"><ele>85.4</ele><time>2026-04-25T06:55:27.007Z</time></trkpt><trkpt lat="42.99224162529589" lon="10.843655035778298"><ele>85.2</ele><time>2026-04-25T06:55:28.007Z</time></trkpt><trkpt lat="42.99216147654312" lon="10.843555744193628"><ele>85.0</ele><time>2026-04-25T06:55:29.007Z</time></trkpt><trkpt lat="42.99208542079104" lon="10.843447219027752"><ele>85.0</ele><time>2026-04-25T06:55:30.007Z</time></trkpt><trkpt lat="42.99201688031387" lon="10.84334231145375"><ele>85.0</ele><time>2026-04-25T06:55:31.007Z</time></trkpt><trkpt lat="42.9919572511039" lon="10.843240677411575"><ele>85.0</ele><time>2026-04-25T06:55:32.007Z</time></trkpt><trkpt lat="42.99191387605283" lon="10.843148980085058"><ele>85.0</ele><time>2026-04-25T06:55:33.007Z</time></trkpt><trkpt lat="42.99187837270338" lon="10.843076528820065"><ele>85.0</ele><time>2026-04-25T06:55:34.007Z</time></trkpt><trkpt lat="42.991825828403236" lon="10.842977011523624"><ele>85.0</ele><time>2026-04-25T06:55:36.007Z</time></trkpt><trkpt lat="42.991796836338544" lon="10.842894581572834"><ele>85.0</ele><time>2026-04-25T06:55:38.007Z</time></trkpt><trkpt lat="42.991801555587955" lon="10.842802024052611"><ele>85.0</ele><time>2026-04-25T06:55:40.007Z</time></trkpt><trkpt lat="42.99178618832977" lon="10.84288925678129"><ele>85.0</ele><time>2026-04-25T06:55:53.007Z</time></trkpt><trkpt lat="42.99175801385697" lon="10.843004772804012"><ele>85.0</ele><time>2026-04-25T06:55:55.007Z</time></trkpt><trkpt lat="42.99169721949456" lon="10.843031261974367"><ele>85.0</ele><time>2026-04-25T06:55:56.007Z</time></trkpt><trkpt lat="42.99159261602196" lon="10.842948324447693"><ele>85.0</ele><time>2026-04-25T06:55:58.007Z</time></trkpt><trkpt lat="42.99153617975892" lon="10.842861414012123"><ele>85.4</ele><time>2026-04-25T06:55:59.007Z</time></trkpt><trkpt lat="42.99146745580542" lon="10.842769126951557"><ele>85.8</ele><time>2026-04-25T06:56:00.007Z</time></trkpt><trkpt lat="42.99138700232175" lon="10.842672101909002"><ele>86.19999999999999</ele><time>2026-04-25T06:56:01.007Z</time></trkpt><trkpt lat="42.99129701249116" lon="10.842575294055754"><ele>86.6</ele><time>2026-04-25T06:56:02.007Z</time></trkpt><trkpt lat="42.9912055348459" lon="10.842475023453066"><ele>87.0</ele><time>2026-04-25T06:56:03.007Z</time></trkpt><trkpt lat="42.991124931730916" lon="10.842385424878929"><ele>86.0</ele><time>2026-04-25T06:56:04.007Z</time></trkpt><trkpt lat="42.99104753826986" lon="10.842291578729517"><ele>85.0</ele><time>2026-04-25T06:56:05.007Z</time></trkpt><trkpt lat="42.99097406289067" lon="10.842183401107215"><ele>84.0</ele><time>2026-04-25T06:56:06.007Z</time></trkpt><trkpt lat="42.99090710385502" lon="10.84204414422912"><ele>83.0</ele><time>2026-04-25T06:56:07.007Z</time></trkpt><trkpt lat="42.99084779999596" lon="10.84188817794545"><ele>82.75</ele><time>2026-04-25T06:56:08.007Z</time></trkpt><trkpt lat="42.99077435217549" lon="10.841729259483524"><ele>82.5</ele><time>2026-04-25T06:56:09.007Z</time></trkpt><trkpt lat="42.99070016483189" lon="10.841566406516296"><ele>82.25</ele><time>2026-04-25T06:56:10.007Z</time></trkpt><trkpt lat="42.99062759027163" lon="10.84142241888664"><ele>82.0</ele><time>2026-04-25T06:56:11.007Z</time></trkpt><trkpt lat="42.99055717175181" lon="10.841295125539505"><ele>82.0</ele><time>2026-04-25T06:56:12.007Z</time></trkpt><trkpt lat="42.990483430033066" lon="10.841205890787947"><ele>82.0</ele><time>2026-04-25T06:56:13.007Z</time></trkpt><trkpt lat="42.990409833017466" lon="10.841124551738208"><ele>82.0</ele><time>2026-04-25T06:56:14.007Z</time></trkpt><trkpt lat="42.99031585913442" lon="10.841080432960691"><ele>82.0</ele><time>2026-04-25T06:56:15.008Z</time></trkpt><trkpt lat="42.990213892652754" lon="10.84106554926258"><ele>82.0</ele><time>2026-04-25T06:56:16.008Z</time></trkpt><trkpt lat="42.9900971931774" lon="10.841054006627028"><ele>82.5</ele><time>2026-04-25T06:56:17.008Z</time></trkpt><trkpt lat="42.989973723136444" lon="10.84104789127992"><ele>83.0</ele><time>2026-04-25T06:56:18.008Z</time></trkpt><trkpt lat="42.98984174821339" lon="10.841042435816624"><ele>83.5</ele><time>2026-04-25T06:56:19.008Z</time></trkpt><trkpt lat="42.989708615345805" lon="10.841035704810372"><ele>84.0</ele><time>2026-04-25T06:56:20.008Z</time></trkpt><trkpt lat="42.9895765842899" lon="10.841023612649332"><ele>84.0</ele><time>2026-04-25T06:56:21.008Z</time></trkpt><trkpt lat="42.98944492457292" lon="10.841006336976202"><ele>84.0</ele><time>2026-04-25T06:56:22.008Z</time></trkpt><trkpt lat="42.989308609287704" lon="10.84099705610778"><ele>84.0</ele><time>2026-04-25T06:56:23.008Z</time></trkpt><trkpt lat="42.98917083209557" lon="10.840995252676956"><ele>84.0</ele><time>2026-04-25T06:56:24.008Z</time></trkpt><trkpt lat="42.989044966432935" lon="10.840992560460956"><ele>83.6</ele><time>2026-04-25T06:56:25.008Z</time></trkpt><trkpt lat="42.98893686395127" lon="10.840984478595695"><ele>83.2</ele><time>2026-04-25T06:56:26.008Z</time></trkpt><trkpt lat="42.98884937276273" lon="10.840983126670888"><ele>82.8</ele><time>2026-04-25T06:56:27.008Z</time></trkpt><trkpt lat="42.98878160900315" lon="10.840981136148509"><ele>82.39999999999999</ele><time>2026-04-25T06:56:28.008Z</time></trkpt><trkpt lat="42.98873110792845" lon="10.840908139086652"><ele>82.0</ele><time>2026-04-25T06:56:30.008Z</time></trkpt><trkpt lat="42.98872689923564" lon="10.840748055030652"><ele>81.6</ele><time>2026-04-25T06:56:32.008Z</time></trkpt><trkpt lat="42.988707914887826" lon="10.840644257384424"><ele>81.19999999999999</ele><time>2026-04-25T06:56:33.008Z</time></trkpt><trkpt lat="42.98867192117031" lon="10.840528005788002"><ele>80.8</ele><time>2026-04-25T06:56:34.008Z</time></trkpt><trkpt lat="42.98863664277135" lon="10.84040743545284"><ele>80.4</ele><time>2026-04-25T06:56:35.008Z</time></trkpt><trkpt lat="42.988604181807645" lon="10.840263871030137"><ele>80.0</ele><time>2026-04-25T06:56:36.008Z</time></trkpt><trkpt lat="42.98858715811445" lon="10.840124090730166"><ele>80.0</ele><time>2026-04-25T06:56:37.008Z</time></trkpt><trkpt lat="42.988563558186435" lon="10.83997759137164"><ele>80.0</ele><time>2026-04-25T06:56:38.008Z</time></trkpt><trkpt lat="42.988539601725925" lon="10.839831983579488"><ele>80.0</ele><time>2026-04-25T06:56:39.008Z</time></trkpt><trkpt lat="42.98851235427942" lon="10.83968647442374"><ele>80.0</ele><time>2026-04-25T06:56:40.008Z</time></trkpt><trkpt lat="42.98847399483511" lon="10.839544485161957"><ele>80.0</ele><time>2026-04-25T06:56:41.008Z</time></trkpt><trkpt lat="42.98842779901247" lon="10.839406694577942"><ele>79.75</ele><time>2026-04-25T06:56:42.008Z</time></trkpt><trkpt lat="42.98838597223394" lon="10.839263116823373"><ele>79.5</ele><time>2026-04-25T06:56:43.008Z</time></trkpt><trkpt lat="42.98836056205167" lon="10.839113520171452"><ele>79.25</ele><time>2026-04-25T06:56:44.008Z</time></trkpt><trkpt lat="42.988357240532714" lon="10.838957964182512"><ele>79.0</ele><time>2026-04-25T06:56:45.008Z</time></trkpt><trkpt lat="42.98835837032037" lon="10.83879727953241"><ele>79.0</ele><time>2026-04-25T06:56:46.008Z</time></trkpt><trkpt lat="42.9883453893759" lon="10.838639137677486"><ele>79.0</ele><time>2026-04-25T06:56:47.008Z</time></trkpt><trkpt lat="42.988323408471864" lon="10.838482267280593"><ele>79.0</ele><time>2026-04-25T06:56:48.008Z</time></trkpt><trkpt lat="42.98829207411724" lon="10.83832421244446"><ele>79.0</ele><time>2026-04-25T06:56:49.008Z</time></trkpt><trkpt lat="42.988264792044994" lon="10.838160602817734"><ele>78.75</ele><time>2026-04-25T06:56:50.008Z</time></trkpt><trkpt lat="42.98823551814253" lon="10.837996328788284"><ele>78.5</ele><time>2026-04-25T06:56:51.008Z</time></trkpt><trkpt lat="42.98820670392889" lon="10.837831543378364"><ele>78.25</ele><time>2026-04-25T06:56:52.008Z</time></trkpt><trkpt lat="42.98817904384964" lon="10.837679809316846"><ele>78.0</ele><time>2026-04-25T06:56:53.008Z</time></trkpt><trkpt lat="42.98815148882641" lon="10.837545173182143"><ele>78.0</ele><time>2026-04-25T06:56:54.008Z</time></trkpt><trkpt lat="42.98812412255475" lon="10.837420742540981"><ele>78.0</ele><time>2026-04-25T06:56:55.008Z</time></trkpt><trkpt lat="42.98808861029849" lon="10.837316784841311"><ele>78.0</ele><time>2026-04-25T06:56:56.008Z</time></trkpt><trkpt lat="42.98802752787183" lon="10.83723193980341"><ele>78.0</ele><time>2026-04-25T06:56:57.008Z</time></trkpt><trkpt lat="42.98794261642954" lon="10.837161036209654"><ele>78.0</ele><time>2026-04-25T06:56:58.008Z</time></trkpt><trkpt lat="42.987853751265256" lon="10.837089672806957"><ele>78.0</ele><time>2026-04-25T06:56:59.008Z</time></trkpt><trkpt lat="42.98776194581569" lon="10.837014543085457"><ele>78.0</ele><time>2026-04-25T06:57:00.008Z</time></trkpt><trkpt lat="42.98767598564944" lon="10.836909880035753"><ele>78.0</ele><time>2026-04-25T06:57:01.008Z</time></trkpt><trkpt lat="42.98759754664682" lon="10.83678413206086"><ele>78.0</ele><time>2026-04-25T06:57:02.008Z</time></trkpt><trkpt lat="42.987524873066846" lon="10.836644518865024"><ele>77.5</ele><time>2026-04-25T06:57:03.008Z</time></trkpt><trkpt lat="42.98745033595562" lon="10.83651441953956"><ele>77.0</ele><time>2026-04-25T06:57:04.008Z</time></trkpt><trkpt lat="42.98737182434982" lon="10.836385747602536"><ele>76.5</ele><time>2026-04-25T06:57:05.008Z</time></trkpt><trkpt lat="42.98729361702051" lon="10.83627235039982"><ele>76.0</ele><time>2026-04-25T06:57:06.008Z</time></trkpt><trkpt lat="42.98722055394858" lon="10.836172937528692"><ele>76.0</ele><time>2026-04-25T06:57:07.008Z</time></trkpt><trkpt lat="42.98715175479775" lon="10.836088956906822"><ele>76.0</ele><time>2026-04-25T06:57:08.008Z</time></trkpt><trkpt lat="42.98707303619646" lon="10.836019851269763"><ele>76.0</ele><time>2026-04-25T06:57:09.008Z</time></trkpt><trkpt lat="42.98698995641045" lon="10.835953951373371"><ele>76.0</ele><time>2026-04-25T06:57:10.008Z</time></trkpt><trkpt lat="42.986917803978265" lon="10.835897116263595"><ele>76.0</ele><time>2026-04-25T06:57:11.008Z</time></trkpt><trkpt lat="42.98684223311208" lon="10.835842306855522"><ele>75.8</ele><time>2026-04-25T06:57:12.008Z</time></trkpt><trkpt lat="42.98675742600094" lon="10.835789474855856"><ele>75.6</ele><time>2026-04-25T06:57:13.008Z</time></trkpt><trkpt lat="42.98666713125213" lon="10.835736347241616"><ele>75.4</ele><time>2026-04-25T06:57:14.008Z</time></trkpt><trkpt lat="42.986577694392096" lon="10.835700976010495"><ele>75.2</ele><time>2026-04-25T06:57:15.008Z</time></trkpt><trkpt lat="42.986484713967414" lon="10.835681068544204"><ele>75.0</ele><time>2026-04-25T06:57:16.008Z</time></trkpt><trkpt lat="42.9863784737849" lon="10.835690530505463"><ele>75.0</ele><time>2026-04-25T06:57:18.008Z</time></trkpt><trkpt lat="42.9863068211824" lon="10.835681682723452"><ele>75.0</ele><time>2026-04-25T06:57:21.008Z</time></trkpt><trkpt lat="42.98636121804868" lon="10.835733756497769"><ele>75.0</ele><time>2026-04-25T06:57:24.008Z</time></trkpt><trkpt lat="42.98648489495698" lon="10.835713579364159"><ele>75.0</ele><time>2026-04-25T06:57:26.008Z</time></trkpt><trkpt lat="42.986556465346574" lon="10.835712250089523"><ele>75.0</ele><time>2026-04-25T06:57:27.008Z</time></trkpt><trkpt lat="42.98664095861883" lon="10.835719560195503"><ele>75.0</ele><time>2026-04-25T06:57:28.008Z</time></trkpt><trkpt lat="42.98672674771703" lon="10.835682974932997"><ele>75.0</ele><time>2026-04-25T06:57:30.008Z</time></trkpt><trkpt lat="42.98672136824857" lon="10.83556489059995"><ele>75.0</ele><time>2026-04-25T06:57:32.008Z</time></trkpt><trkpt lat="42.98664470246741" lon="10.835503137913486"><ele>75.0</ele><time>2026-04-25T06:57:34.008Z</time></trkpt><trkpt lat="42.98656781438655" lon="10.83543307874517"><ele>75.0</ele><time>2026-04-25T06:57:36.008Z</time></trkpt><trkpt lat="42.98647052430795" lon="10.835340297389077"><ele>75.0</ele><time>2026-04-25T06:57:38.008Z</time></trkpt><trkpt lat="42.986422107882795" lon="10.835261322828831"><ele>75.0</ele><time>2026-04-25T06:57:39.008Z</time></trkpt><trkpt lat="42.98638311404221" lon="10.835176051569727"><ele>75.0</ele><time>2026-04-25T06:57:40.008Z</time></trkpt><trkpt lat="42.986342270184565" lon="10.835078020571823"><ele>75.0</ele><time>2026-04-25T06:57:41.008Z</time></trkpt><trkpt lat="42.9863054577835" lon="10.835005387265781"><ele>75.0</ele><time>2026-04-25T06:57:42.008Z</time></trkpt><trkpt lat="42.98620633916383" lon="10.834927615370923"><ele>75.0</ele><time>2026-04-25T06:57:44.008Z</time></trkpt><trkpt lat="42.9861443856795" lon="10.834869326393436"><ele>75.0</ele><time>2026-04-25T06:57:45.008Z</time></trkpt><trkpt lat="42.98611166366502" lon="10.834710606473756"><ele>74.16666666666667</ele><time>2026-04-25T06:57:47.008Z</time></trkpt><trkpt lat="42.9861067877978" lon="10.83460615846275"><ele>73.33333333333333</ele><time>2026-04-25T06:57:48.008Z</time></trkpt><trkpt lat="42.98610034032408" lon="10.834499300564653"><ele>72.5</ele><time>2026-04-25T06:57:49.008Z</time></trkpt><trkpt lat="42.9860925876311" lon="10.834401461226458"><ele>71.66666666666666</ele><time>2026-04-25T06:57:50.008Z</time></trkpt><trkpt lat="42.986060197645166" lon="10.834319008366155"><ele>70.83333333333333</ele><time>2026-04-25T06:57:51.008Z</time></trkpt><trkpt lat="42.98600879227888" lon="10.834231568983014"><ele>70.0</ele><time>2026-04-25T06:57:52.008Z</time></trkpt><trkpt lat="42.98595046136153" lon="10.83412764805483"><ele>69.6</ele><time>2026-04-25T06:57:53.008Z</time></trkpt><trkpt lat="42.98587352782671" lon="10.83402383307854"><ele>69.2</ele><time>2026-04-25T06:57:54.008Z</time></trkpt><trkpt lat="42.98581544058114" lon="10.833905617882236"><ele>68.8</ele><time>2026-04-25T06:57:55.008Z</time></trkpt><trkpt lat="42.98578529172093" lon="10.83378849739443"><ele>68.4</ele><time>2026-04-25T06:57:56.008Z</time></trkpt><trkpt lat="42.985766547044626" lon="10.833672082260904"><ele>68.0</ele><time>2026-04-25T06:57:57.008Z</time></trkpt><trkpt lat="42.985756919645816" lon="10.83355425554084"><ele>66.4</ele><time>2026-04-25T06:57:58.008Z</time></trkpt><trkpt lat="42.98573202968711" lon="10.833428102851117"><ele>64.8</ele><time>2026-04-25T06:57:59.008Z</time></trkpt><trkpt lat="42.98569297595385" lon="10.833314760357027"><ele>63.2</ele><time>2026-04-25T06:58:00.008Z</time></trkpt><trkpt lat="42.985639591621265" lon="10.83322553984477"><ele>61.6</ele><time>2026-04-25T06:58:01.008Z</time></trkpt><trkpt lat="42.985549255270826" lon="10.833142327479651"><ele>60.0</ele><time>2026-04-25T06:58:03.008Z</time></trkpt><trkpt lat="42.98548554788757" lon="10.833088800665795"><ele>60.0</ele><time>2026-04-25T06:58:04.008Z</time></trkpt><trkpt lat="42.98541806097222" lon="10.832996874955631"><ele>60.0</ele><time>2026-04-25T06:58:05.008Z</time></trkpt><trkpt lat="42.98536092835046" lon="10.832873947916937"><ele>60.0</ele><time>2026-04-25T06:58:06.008Z</time></trkpt><trkpt lat="42.98529662010041" lon="10.832763364493239"><ele>60.0</ele><time>2026-04-25T06:58:07.008Z</time></trkpt><trkpt lat="42.98523468369542" lon="10.832687261152811"><ele>60.0</ele><time>2026-04-25T06:58:08.008Z</time></trkpt><trkpt lat="42.985167421812996" lon="10.832607507150605"><ele>59.333333333333336</ele><time>2026-04-25T06:58:09.008Z</time></trkpt><trkpt lat="42.985095685867" lon="10.832525168230616"><ele>58.66666666666667</ele><time>2026-04-25T06:58:10.008Z</time></trkpt><trkpt lat="42.98503899386423" lon="10.83245873084796"><ele>58.0</ele><time>2026-04-25T06:58:11.008Z</time></trkpt><trkpt lat="42.98497368781553" lon="10.832394151901376"><ele>57.333333333333336</ele><time>2026-04-25T06:58:12.008Z</time></trkpt><trkpt lat="42.984919850353435" lon="10.832346395116462"><ele>56.66666666666667</ele><time>2026-04-25T06:58:13.008Z</time></trkpt><trkpt lat="42.98480170957797" lon="10.832334231057295"><ele>56.0</ele><time>2026-04-25T06:58:15.008Z</time></trkpt><trkpt lat="42.98470339826478" lon="10.83236177950395"><ele>56.0</ele><time>2026-04-25T06:58:16.008Z</time></trkpt><trkpt lat="42.98459892819868" lon="10.832356369186858"><ele>55.99999999999999</ele><time>2026-04-25T06:58:17.008Z</time></trkpt><trkpt lat="42.98450387765015" lon="10.832368640056487"><ele>55.99999999999999</ele><time>2026-04-25T06:58:18.008Z</time></trkpt><trkpt lat="42.98442359003973" lon="10.832392483045247"><ele>56.0</ele><time>2026-04-25T06:58:19.008Z</time></trkpt><trkpt lat="42.98434146013443" lon="10.832451004208313"><ele>56.0</ele><time>2026-04-25T06:58:20.008Z</time></trkpt><trkpt lat="42.98426291644542" lon="10.832502924680592"><ele>56.16666666666667</ele><time>2026-04-25T06:58:21.008Z</time></trkpt><trkpt lat="42.98417446772172" lon="10.832559947008946"><ele>56.333333333333336</ele><time>2026-04-25T06:58:22.008Z</time></trkpt><trkpt lat="42.984100147862286" lon="10.832582582620477"><ele>56.5</ele><time>2026-04-25T06:58:23.008Z</time></trkpt><trkpt lat="42.9840321952278" lon="10.832539652470473"><ele>56.66666666666667</ele><time>2026-04-25T06:58:24.008Z</time></trkpt><trkpt lat="42.98397999729052" lon="10.832476867201972"><ele>56.833333333333336</ele><time>2026-04-25T06:58:25.008Z</time></trkpt><trkpt lat="42.983936420707636" lon="10.832401712363092"><ele>57.0</ele><time>2026-04-25T06:58:26.008Z</time></trkpt><trkpt lat="42.98386167289789" lon="10.832277301150345"><ele>57.0</ele><time>2026-04-25T06:58:28.008Z</time></trkpt><trkpt lat="42.983804854493975" lon="10.832202317235495"><ele>57.0</ele><time>2026-04-25T06:58:29.008Z</time></trkpt><trkpt lat="42.98372566081554" lon="10.832103888959976"><ele>57.0</ele><time>2026-04-25T06:58:30.008Z</time></trkpt><trkpt lat="42.983647877134935" lon="10.832016148691157"><ele>57.0</ele><time>2026-04-25T06:58:31.008Z</time></trkpt><trkpt lat="42.9835526618014" lon="10.83193682865418"><ele>57.0</ele><time>2026-04-25T06:58:32.008Z</time></trkpt><trkpt lat="42.98345014992542" lon="10.831868860772964"><ele>57.5</ele><time>2026-04-25T06:58:33.008Z</time></trkpt><trkpt lat="42.983339680385825" lon="10.831813889869641"><ele>58.0</ele><time>2026-04-25T06:58:34.008Z</time></trkpt><trkpt lat="42.98322810005323" lon="10.831727300884301"><ele>58.5</ele><time>2026-04-25T06:58:35.008Z</time></trkpt><trkpt lat="42.983109214088266" lon="10.83165006656399"><ele>59.0</ele><time>2026-04-25T06:58:36.008Z</time></trkpt><trkpt lat="42.982998510208944" lon="10.831557471083242"><ele>57.75</ele><time>2026-04-25T06:58:37.008Z</time></trkpt><trkpt lat="42.98287898616903" lon="10.831476140990357"><ele>56.5</ele><time>2026-04-25T06:58:38.008Z</time></trkpt><trkpt lat="42.98276438723292" lon="10.831411471601236"><ele>55.25</ele><time>2026-04-25T06:58:39.008Z</time></trkpt><trkpt lat="42.98264971539647" lon="10.831317016763887"><ele>54.0</ele><time>2026-04-25T06:58:40.008Z</time></trkpt><trkpt lat="42.98252795388354" lon="10.831242276071023"><ele>53.0</ele><time>2026-04-25T06:58:41.008Z</time></trkpt><trkpt lat="42.98240117839687" lon="10.83115204626466"><ele>52.0</ele><time>2026-04-25T06:58:42.008Z</time></trkpt><trkpt lat="42.98228671753682" lon="10.831078067860147"><ele>51.0</ele><time>2026-04-25T06:58:43.008Z</time></trkpt><trkpt lat="42.98217340657675" lon="10.831002167236843"><ele>50.0</ele><time>2026-04-25T06:58:44.008Z</time></trkpt><trkpt lat="42.98204928849963" lon="10.83092631032641"><ele>50.0</ele><time>2026-04-25T06:58:45.008Z</time></trkpt><trkpt lat="42.98193240867095" lon="10.830850872540818"><ele>50.0</ele><time>2026-04-25T06:58:46.008Z</time></trkpt><trkpt lat="42.981815993702" lon="10.830771897553507"><ele>50.0</ele><time>2026-04-25T06:58:47.008Z</time></trkpt><trkpt lat="42.981696808250305" lon="10.83069727181058"><ele>50.0</ele><time>2026-04-25T06:58:48.008Z</time></trkpt><trkpt lat="42.98158377599825" lon="10.830615383290088"><ele>51.75</ele><time>2026-04-25T06:58:49.008Z</time></trkpt><trkpt lat="42.981475146596104" lon="10.830532435843214"><ele>53.5</ele><time>2026-04-25T06:58:50.008Z</time></trkpt><trkpt lat="42.98135808761054" lon="10.830454081996214"><ele>55.25</ele><time>2026-04-25T06:58:51.008Z</time></trkpt><trkpt lat="42.98124316759341" lon="10.830367469353561"><ele>57.0</ele><time>2026-04-25T06:58:52.008Z</time></trkpt><trkpt lat="42.981127139055545" lon="10.83029087495913"><ele>57.0</ele><time>2026-04-25T06:58:53.008Z</time></trkpt><trkpt lat="42.98101006446267" lon="10.830216934999546"><ele>57.0</ele><time>2026-04-25T06:58:54.008Z</time></trkpt><trkpt lat="42.980891780744095" lon="10.830137832250854"><ele>57.0</ele><time>2026-04-25T06:58:55.008Z</time></trkpt><trkpt lat="42.980774360627706" lon="10.83006394185891"><ele>57.0</ele><time>2026-04-25T06:58:56.008Z</time></trkpt><trkpt lat="42.980659638998084" lon="10.829984483461928"><ele>55.5</ele><time>2026-04-25T06:58:57.008Z</time></trkpt><trkpt lat="42.98054408746883" lon="10.829912106255403"><ele>54.0</ele><time>2026-04-25T06:58:58.008Z</time></trkpt><trkpt lat="42.980426636025136" lon="10.829837856055208"><ele>52.5</ele><time>2026-04-25T06:58:59.009Z</time></trkpt><trkpt lat="42.98031963425683" lon="10.829764293321967"><ele>51.0</ele><time>2026-04-25T06:59:00.009Z</time></trkpt><trkpt lat="42.9802206976381" lon="10.829688692380598"><ele>51.0</ele><time>2026-04-25T06:59:01.009Z</time></trkpt><trkpt lat="42.98012139935089" lon="10.82959485698722"><ele>51.0</ele><time>2026-04-25T06:59:02.009Z</time></trkpt><trkpt lat="42.980019978614045" lon="10.829485723741222"><ele>51.0</ele><time>2026-04-25T06:59:03.009Z</time></trkpt><trkpt lat="42.979910059444" lon="10.82936011003885"><ele>51.0</ele><time>2026-04-25T06:59:04.009Z</time></trkpt><trkpt lat="42.97980997186014" lon="10.829234533053695"><ele>50.0</ele><time>2026-04-25T06:59:05.009Z</time></trkpt><trkpt lat="42.97970998042755" lon="10.829116124326504"><ele>49.0</ele><time>2026-04-25T06:59:06.009Z</time></trkpt><trkpt lat="42.97961371499273" lon="10.828993736139154"><ele>48.0</ele><time>2026-04-25T06:59:07.009Z</time></trkpt><trkpt lat="42.97950908261009" lon="10.828884757371696"><ele>47.0</ele><time>2026-04-25T06:59:08.009Z</time></trkpt><trkpt lat="42.97939872429189" lon="10.828767269921748"><ele>47.0</ele><time>2026-04-25T06:59:09.007Z</time></trkpt><trkpt lat="42.97928287524237" lon="10.828638455157863"><ele>47.0</ele><time>2026-04-25T06:59:10.007Z</time></trkpt><trkpt lat="42.97918259903961" lon="10.82851587035451"><ele>47.0</ele><time>2026-04-25T06:59:11.007Z</time></trkpt><trkpt lat="42.97907244711335" lon="10.8283758575467"><ele>47.0</ele><time>2026-04-25T06:59:12.007Z</time></trkpt><trkpt lat="42.97896113111385" lon="10.828250014459002"><ele>46.75</ele><time>2026-04-25T06:59:13.007Z</time></trkpt><trkpt lat="42.97885077617031" lon="10.828123636645294"><ele>46.5</ele><time>2026-04-25T06:59:14.007Z</time></trkpt><trkpt lat="42.978746325367766" lon="10.828003390956654"><ele>46.25</ele><time>2026-04-25T06:59:15.007Z</time></trkpt><trkpt lat="42.97863138641591" lon="10.82788210487623"><ele>46.0</ele><time>2026-04-25T06:59:16.007Z</time></trkpt><trkpt lat="42.978523640261436" lon="10.827758346008713"><ele>46.0</ele><time>2026-04-25T06:59:17.007Z</time></trkpt><trkpt lat="42.97841609291019" lon="10.827639223782985"><ele>46.0</ele><time>2026-04-25T06:59:18.007Z</time></trkpt><trkpt lat="42.97831470417388" lon="10.827510880560906"><ele>46.0</ele><time>2026-04-25T06:59:19.007Z</time></trkpt><trkpt lat="42.97820741493526" lon="10.827382191862178"><ele>46.0</ele><time>2026-04-25T06:59:20.007Z</time></trkpt><trkpt lat="42.97810162175943" lon="10.827253249821752"><ele>46.0</ele><time>2026-04-25T06:59:21.007Z</time></trkpt><trkpt lat="42.977996880745295" lon="10.827130619217803"><ele>46.0</ele><time>2026-04-25T06:59:22.007Z</time></trkpt><trkpt lat="42.97788928210684" lon="10.827008580777141"><ele>46.0</ele><time>2026-04-25T06:59:23.007Z</time></trkpt><trkpt lat="42.97778306833831" lon="10.826891538449047"><ele>46.0</ele><time>2026-04-25T06:59:24.007Z</time></trkpt><trkpt lat="42.97767786751341" lon="10.82676935185375"><ele>45.75</ele><time>2026-04-25T06:59:25.007Z</time></trkpt><trkpt lat="42.97757718950339" lon="10.826644569238905"><ele>45.5</ele><time>2026-04-25T06:59:26.007Z</time></trkpt><trkpt lat="42.97746525394804" lon="10.826531847366361"><ele>45.25</ele><time>2026-04-25T06:59:27.007Z</time></trkpt><trkpt lat="42.9773593420635" lon="10.826407094949412"><ele>45.0</ele><time>2026-04-25T06:59:28.007Z</time></trkpt><trkpt lat="42.977248172297514" lon="10.826274835562565"><ele>45.0</ele><time>2026-04-25T06:59:29.007Z</time></trkpt><trkpt lat="42.97714258627984" lon="10.826148051703774"><ele>45.0</ele><time>2026-04-25T06:59:30.007Z</time></trkpt><trkpt lat="42.977032255711215" lon="10.82602089790172"><ele>45.0</ele><time>2026-04-25T06:59:31.007Z</time></trkpt><trkpt lat="42.97691489199392" lon="10.825897375754755"><ele>45.0</ele><time>2026-04-25T06:59:32.007Z</time></trkpt><trkpt lat="42.97679658921315" lon="10.825759373433392"><ele>44.666666666666664</ele><time>2026-04-25T06:59:33.007Z</time></trkpt><trkpt lat="42.97667765175684" lon="10.825622585215276"><ele>44.33333333333333</ele><time>2026-04-25T06:59:34.007Z</time></trkpt><trkpt lat="42.97655709791356" lon="10.825490610233853"><ele>44.0</ele><time>2026-04-25T06:59:35.007Z</time></trkpt><trkpt lat="42.976442488955854" lon="10.825366061024527"><ele>44.0</ele><time>2026-04-25T06:59:36.007Z</time></trkpt><trkpt lat="42.976331073384756" lon="10.825236336280346"><ele>44.0</ele><time>2026-04-25T06:59:37.007Z</time></trkpt><trkpt lat="42.97622050521034" lon="10.825112095949551"><ele>44.0</ele><time>2026-04-25T06:59:38.007Z</time></trkpt><trkpt lat="42.97612383487633" lon="10.824996103937675"><ele>44.0</ele><time>2026-04-25T06:59:39.007Z</time></trkpt><trkpt lat="42.97603716494585" lon="10.82488694435624"><ele>43.5</ele><time>2026-04-25T06:59:40.007Z</time></trkpt><trkpt lat="42.97595279587775" lon="10.824782457774395"><ele>43.0</ele><time>2026-04-25T06:59:41.007Z</time></trkpt><trkpt lat="42.975874740653815" lon="10.824696848318107"><ele>42.5</ele><time>2026-04-25T06:59:42.007Z</time></trkpt><trkpt lat="42.975776936822385" lon="10.824589112348207"><ele>42.0</ele><time>2026-04-25T06:59:43.007Z</time></trkpt><trkpt lat="42.975683782079955" lon="10.824485397945779"><ele>41.75</ele><time>2026-04-25T06:59:44.007Z</time></trkpt><trkpt lat="42.97558914827119" lon="10.824375287154533"><ele>41.5</ele><time>2026-04-25T06:59:45.007Z</time></trkpt><trkpt lat="42.97549538144109" lon="10.82426631867986"><ele>41.25</ele><time>2026-04-25T06:59:46.007Z</time></trkpt><trkpt lat="42.97539005490609" lon="10.824144130388635"><ele>41.0</ele><time>2026-04-25T06:59:47.007Z</time></trkpt><trkpt lat="42.97528482975595" lon="10.82402821060193"><ele>40.5</ele><time>2026-04-25T06:59:48.007Z</time></trkpt><trkpt lat="42.97519116505779" lon="10.823910754823824"><ele>40.0</ele><time>2026-04-25T06:59:49.007Z</time></trkpt><trkpt lat="42.975092545593334" lon="10.82379363836554"><ele>39.5</ele><time>2026-04-25T06:59:50.007Z</time></trkpt><trkpt lat="42.97497720020783" lon="10.823670594522602"><ele>39.0</ele><time>2026-04-25T06:59:51.007Z</time></trkpt><trkpt lat="42.97487458310022" lon="10.82354193665662"><ele>38.75</ele><time>2026-04-25T06:59:52.007Z</time></trkpt><trkpt lat="42.97476419794736" lon="10.823427762969647"><ele>38.5</ele><time>2026-04-25T06:59:53.007Z</time></trkpt><trkpt lat="42.97465763959581" lon="10.82329901334777"><ele>38.25</ele><time>2026-04-25T06:59:54.007Z</time></trkpt><trkpt lat="42.97454411385831" lon="10.823170469615864"><ele>38.0</ele><time>2026-04-25T06:59:55.007Z</time></trkpt><trkpt lat="42.974429618956286" lon="10.823029248345016"><ele>38.0</ele><time>2026-04-25T06:59:56.006Z</time></trkpt><trkpt lat="42.97431201206729" lon="10.822896291194935"><ele>38.0</ele><time>2026-04-25T06:59:57.006Z</time></trkpt><trkpt lat="42.974198565471404" lon="10.822769061245134"><ele>38.0</ele><time>2026-04-25T06:59:58.007Z</time></trkpt><trkpt lat="42.974090444073205" lon="10.8226387737736"><ele>38.0</ele><time>2026-04-25T06:59:59.007Z</time></trkpt><trkpt lat="42.97397702070288" lon="10.822510139114156"><ele>37.75</ele><time>2026-04-25T07:00:00.007Z</time></trkpt><trkpt lat="42.973860105933" lon="10.822377904346995"><ele>37.5</ele><time>2026-04-25T07:00:01.007Z</time></trkpt><trkpt lat="42.97375116567415" lon="10.822249350546812"><ele>37.25</ele><time>2026-04-25T07:00:02.007Z</time></trkpt><trkpt lat="42.97363392377542" lon="10.822125650515728"><ele>37.0</ele><time>2026-04-25T07:00:03.007Z</time></trkpt><trkpt lat="42.97352315390471" lon="10.821990075093684"><ele>37.0</ele><time>2026-04-25T07:00:04.007Z</time></trkpt><trkpt lat="42.973410179217346" lon="10.821869828834096"><ele>37.0</ele><time>2026-04-25T07:00:05.007Z</time></trkpt><trkpt lat="42.97331875792106" lon="10.821749818916718"><ele>37.0</ele><time>2026-04-25T07:00:06.007Z</time></trkpt><trkpt lat="42.973232375326475" lon="10.821646888500425"><ele>37.0</ele><time>2026-04-25T07:00:07.007Z</time></trkpt><trkpt lat="42.973151513026764" lon="10.821549163247411"><ele>36.75</ele><time>2026-04-25T07:00:08.007Z</time></trkpt><trkpt lat="42.97306268301869" lon="10.821454064297939"><ele>36.5</ele><time>2026-04-25T07:00:09.007Z</time></trkpt><trkpt lat="42.972966639981536" lon="10.82137442438106"><ele>36.25</ele><time>2026-04-25T07:00:10.007Z</time></trkpt><trkpt lat="42.97285337235356" lon="10.821322848824096"><ele>36.0</ele><time>2026-04-25T07:00:11.007Z</time></trkpt><trkpt lat="42.97274260445978" lon="10.821288199827213"><ele>36.0</ele><time>2026-04-25T07:00:12.007Z</time></trkpt><trkpt lat="42.97261821087305" lon="10.821275912312291"><ele>36.0</ele><time>2026-04-25T07:00:13.007Z</time></trkpt><trkpt lat="42.9724711880017" lon="10.82126062219332"><ele>36.0</ele><time>2026-04-25T07:00:14.007Z</time></trkpt><trkpt lat="42.972347370179186" lon="10.821242815555214"><ele>36.0</ele><time>2026-04-25T07:00:15.007Z</time></trkpt><trkpt lat="42.97222390229684" lon="10.821213740934473"><ele>35.8</ele><time>2026-04-25T07:00:16.007Z</time></trkpt><trkpt lat="42.972116642797346" lon="10.821195007700817"><ele>35.6</ele><time>2026-04-25T07:00:17.007Z</time></trkpt><trkpt lat="42.97199987341177" lon="10.821170702426569"><ele>35.4</ele><time>2026-04-25T07:00:18.007Z</time></trkpt><trkpt lat="42.97189415075402" lon="10.821157901520278"><ele>35.2</ele><time>2026-04-25T07:00:19.007Z</time></trkpt><trkpt lat="42.9717961786113" lon="10.821165847602497"><ele>35.0</ele><time>2026-04-25T07:00:20.007Z</time></trkpt><trkpt lat="42.971694899908904" lon="10.82120668308439"><ele>35.0</ele><time>2026-04-25T07:00:21.007Z</time></trkpt><trkpt lat="42.97160527157157" lon="10.82128273966631"><ele>35.0</ele><time>2026-04-25T07:00:22.007Z</time></trkpt><trkpt lat="42.971522138277074" lon="10.821366658838508"><ele>35.0</ele><time>2026-04-25T07:00:23.007Z</time></trkpt><trkpt lat="42.97142698834872" lon="10.821498766890123"><ele>35.0</ele><time>2026-04-25T07:00:24.007Z</time></trkpt><trkpt lat="42.97133194078819" lon="10.82165248338033"><ele>35.0</ele><time>2026-04-25T07:00:25.007Z</time></trkpt><trkpt lat="42.97123874852533" lon="10.821791623239411"><ele>35.0</ele><time>2026-04-25T07:00:26.007Z</time></trkpt><trkpt lat="42.97113571483141" lon="10.8219490648728"><ele>35.0</ele><time>2026-04-25T07:00:27.007Z</time></trkpt><trkpt lat="42.97102899238613" lon="10.822112690122891"><ele>35.0</ele><time>2026-04-25T07:00:28.007Z</time></trkpt><trkpt lat="42.970912199021974" lon="10.82227392184139"><ele>35.0</ele><time>2026-04-25T07:00:29.007Z</time></trkpt><trkpt lat="42.97082628897922" lon="10.822391178625486"><ele>35.0</ele><time>2026-04-25T07:00:30.007Z</time></trkpt><trkpt lat="42.97076781099939" lon="10.82249454691509"><ele>35.0</ele><time>2026-04-25T07:00:31.007Z</time></trkpt><trkpt lat="42.970718126378195" lon="10.82258218172759"><ele>35.0</ele><time>2026-04-25T07:00:32.007Z</time></trkpt><trkpt lat="42.970672238475345" lon="10.822662916375062"><ele>35.0</ele><time>2026-04-25T07:00:33.007Z</time></trkpt><trkpt lat="42.97059752189104" lon="10.822751082276994"><ele>35.0</ele><time>2026-04-25T07:00:35.007Z</time></trkpt><trkpt lat="42.97055308131907" lon="10.822817085681669"><ele>35.0</ele><time>2026-04-25T07:00:36.007Z</time></trkpt><trkpt lat="42.97049898192254" lon="10.822896340364402"><ele>35.0</ele><time>2026-04-25T07:00:37.007Z</time></trkpt><trkpt lat="42.97043939644395" lon="10.822982901854985"><ele>35.0</ele><time>2026-04-25T07:00:38.007Z</time></trkpt><trkpt lat="42.97036927492969" lon="10.823078784097216"><ele>35.0</ele><time>2026-04-25T07:00:39.007Z</time></trkpt><trkpt lat="42.97030983345412" lon="10.823165188005946"><ele>35.0</ele><time>2026-04-25T07:00:40.007Z</time></trkpt><trkpt lat="42.97025863553224" lon="10.82325094598363"><ele>35.0</ele><time>2026-04-25T07:00:41.007Z</time></trkpt><trkpt lat="42.9701830116672" lon="10.823363069763642"><ele>35.0</ele><time>2026-04-25T07:00:42.007Z</time></trkpt><trkpt lat="42.97012366485759" lon="10.823455273740825"><ele>35.0</ele><time>2026-04-25T07:00:43.007Z</time></trkpt><trkpt lat="42.9700512596175" lon="10.823558725299787"><ele>34.6</ele><time>2026-04-25T07:00:44.007Z</time></trkpt><trkpt lat="42.969974815122306" lon="10.82366591325944"><ele>34.2</ele><time>2026-04-25T07:00:45.007Z</time></trkpt><trkpt lat="42.96990615790504" lon="10.823766942088946"><ele>33.8</ele><time>2026-04-25T07:00:46.007Z</time></trkpt><trkpt lat="42.96983802754611" lon="10.82386010788134"><ele>33.4</ele><time>2026-04-25T07:00:47.007Z</time></trkpt><trkpt lat="42.96978431162488" lon="10.823948054427449"><ele>33.0</ele><time>2026-04-25T07:00:48.007Z</time></trkpt><trkpt lat="42.96972881497883" lon="10.824027602064616"><ele>33.0</ele><time>2026-04-25T07:00:49.007Z</time></trkpt><trkpt lat="42.96967605233621" lon="10.824104642009349"><ele>33.0</ele><time>2026-04-25T07:00:50.007Z</time></trkpt><trkpt lat="42.96962988352726" lon="10.824171277613996"><ele>33.0</ele><time>2026-04-25T07:00:51.007Z</time></trkpt><trkpt lat="42.96955410989048" lon="10.824259096434636"><ele>33.0</ele><time>2026-04-25T07:00:53.007Z</time></trkpt><trkpt lat="42.969475117385116" lon="10.824253918826196"><ele>33.0</ele><time>2026-04-25T07:00:55.007Z</time></trkpt><trkpt lat="42.96942997073974" lon="10.824098945204113"><ele>33.0</ele><time>2026-04-25T07:00:57.007Z</time></trkpt><trkpt lat="42.96941208921304" lon="10.824006566436639"><ele>33.0</ele><time>2026-04-25T07:00:58.007Z</time></trkpt><trkpt lat="42.9693853089643" lon="10.823890308067392"><ele>33.0</ele><time>2026-04-25T07:00:59.007Z</time></trkpt><trkpt lat="42.969352465704716" lon="10.823768498652347"><ele>33.0</ele><time>2026-04-25T07:01:00.007Z</time></trkpt><trkpt lat="42.96931202364548" lon="10.823648307855068"><ele>33.0</ele><time>2026-04-25T07:01:01.007Z</time></trkpt><trkpt lat="42.969279398720964" lon="10.82354335184952"><ele>33.0</ele><time>2026-04-25T07:01:02.007Z</time></trkpt><trkpt lat="42.96924392361997" lon="10.823396838370616"><ele>32.833333333333336</ele><time>2026-04-25T07:01:04.007Z</time></trkpt><trkpt lat="42.969209577276914" lon="10.823304323179576"><ele>32.666666666666664</ele><time>2026-04-25T07:01:06.007Z</time></trkpt><trkpt lat="42.96918966790496" lon="10.823219911762308"><ele>32.5</ele><time>2026-04-25T07:01:08.007Z</time></trkpt><trkpt lat="42.9691634692795" lon="10.823098953386632"><ele>32.33333333333333</ele><time>2026-04-25T07:01:11.007Z</time></trkpt><trkpt lat="42.96914067541722" lon="10.823010163561968"><ele>32.166666666666664</ele><time>2026-04-25T07:01:13.007Z</time></trkpt><trkpt lat="42.9691108547871" lon="10.82288584966643"><ele>32.0</ele><time>2026-04-25T07:01:16.007Z</time></trkpt><trkpt lat="42.96910169170928" lon="10.8227882643196"><ele>32.0</ele><time>2026-04-25T07:01:18.007Z</time></trkpt><trkpt lat="42.969070070846435" lon="10.822704825983221"><ele>31.999999999999996</ele><time>2026-04-25T07:01:20.007Z</time></trkpt><trkpt lat="42.96904766041498" lon="10.822588697441734"><ele>32.0</ele><time>2026-04-25T07:01:23.007Z</time></trkpt><trkpt lat="42.96901914577162" lon="10.8225029914198"><ele>32.0</ele><time>2026-04-25T07:01:25.007Z</time></trkpt><trkpt lat="42.969000856824586" lon="10.822419713878725"><ele>31.999999999999996</ele><time>2026-04-25T07:01:27.007Z</time></trkpt><trkpt lat="42.968987826356575" lon="10.822324542014325"><ele>32.0</ele><time>2026-04-25T07:01:29.007Z</time></trkpt><trkpt lat="42.96896147086629" lon="10.82222828107138"><ele>32.0</ele><time>2026-04-25T07:01:31.007Z</time></trkpt><trkpt lat="42.96893992800753" lon="10.822121585210507"><ele>31.999999999999996</ele><time>2026-04-25T07:01:33.007Z</time></trkpt><trkpt lat="42.96891953298078" lon="10.822018420383463"><ele>32.0</ele><time>2026-04-25T07:01:35.007Z</time></trkpt><trkpt lat="42.96889763125896" lon="10.82192062552216"><ele>32.0</ele><time>2026-04-25T07:01:37.007Z</time></trkpt><trkpt lat="42.968869464168385" lon="10.821819630871774"><ele>32.0</ele><time>2026-04-25T07:01:39.007Z</time></trkpt><trkpt lat="42.96882517277135" lon="10.821703901983383"><ele>31.999999999999996</ele><time>2026-04-25T07:01:41.007Z</time></trkpt><trkpt lat="42.9687706736824" lon="10.821593902129829"><ele>32.0</ele><time>2026-04-25T07:01:43.007Z</time></trkpt><trkpt lat="42.96870943697451" lon="10.821479617270775"><ele>32.0</ele><time>2026-04-25T07:01:45.007Z</time></trkpt><trkpt lat="42.968643411075554" lon="10.821370694945173"><ele>32.0</ele><time>2026-04-25T07:01:47.007Z</time></trkpt><trkpt lat="42.96858566912647" lon="10.821264096587644"><ele>32.0</ele><time>2026-04-25T07:01:49.007Z</time></trkpt><trkpt lat="42.96851009474756" lon="10.821142205678271"><ele>32.0</ele><time>2026-04-25T07:01:51.007Z</time></trkpt><trkpt lat="42.9684459581538" lon="10.821020665799658"><ele>32.0</ele><time>2026-04-25T07:01:53.007Z</time></trkpt><trkpt lat="42.96838211662769" lon="10.820906241765162"><ele>32.0</ele><time>2026-04-25T07:01:55.007Z</time></trkpt><trkpt lat="42.96833068406274" lon="10.820802052211606"><ele>34.0</ele><time>2026-04-25T07:01:57.007Z</time></trkpt><trkpt lat="42.96829115899183" lon="10.82071323847897"><ele>34.0</ele><time>2026-04-25T07:02:00.007Z</time></trkpt><trkpt lat="42.96834138900066" lon="10.820637285519974"><ele>34.0</ele><time>2026-04-25T07:02:03.008Z</time></trkpt><trkpt lat="42.96840010809658" lon="10.820582450306908"><ele>32.0</ele><time>2026-04-25T07:02:07.008Z</time></trkpt><trkpt lat="42.96844046471019" lon="10.820514512238748"><ele>32.0</ele><time>2026-04-25T07:02:13.007Z</time></trkpt></trkseg></trk></gpx>